Wetterdaten: Samstag, 21.03.2020
Datum Zeit Temp. Aussen Temp. o. S. Temp +5cm Feuchte Auss Luftdruck Regen Sonnenschein Regendauer Solar Windben Empfang
21.03.2020 00:00 4,8 C 3,3 C 3,3 C 93 % 1027,9 hPa 0,0 l/m 0 min 0 min 0 W/m 9,7 km/h (2 Bft) 100,00 %
21.03.2020 00:02 4,8 C 3,3 C 3,3 C 93 % 1027,9 hPa 0,0 l/m 0 min 0 min 0 W/m 6,4 km/h (2 Bft) 97,83 %
21.03.2020 00:04 4,8 C 3,3 C 3,3 C 93 % 1027,9 hPa 0,0 l/m 0 min 0 min 0 W/m 9,7 km/h (2 Bft) 100,00 %
21.03.2020 00:08 4,8 C 3,9 C 3,3 C 93 % 1028,0 hPa 0,0 l/m 0 min 4 min 0 W/m 12,9 km/h (3 Bft) 97,65 %
21.03.2020 00:10 4,8 C 3,9 C 3,3 C 93 % 1027,9 hPa 0,0 l/m 0 min 0 min 0 W/m 9,7 km/h (2 Bft) 100,00 %
21.03.2020 00:12 4,8 C 3,9 C 3,3 C 93 % 1027,9 hPa 0,0 l/m 0 min 2 min 0 W/m 9,7 km/h (2 Bft) 100,00 %
21.03.2020 00:14 4,8 C 3,3 C 3,3 C 93 % 1027,9 hPa 0,0 l/m 0 min 0 min 0 W/m 9,7 km/h (2 Bft) 100,00 %
21.03.2020 00:16 4,8 C 3,3 C 3,3 C 93 % 1027,8 hPa 0,0 l/m 0 min 0 min 0 W/m 9,7 km/h (2 Bft) 97,87 %
21.03.2020 00:18 4,8 C 3,3 C 3,3 C 93 % 1027,8 hPa 0,0 l/m 0 min 0 min 0 W/m 6,4 km/h (2 Bft) 97,87 %
21.03.2020 00:20 4,8 C 3,3 C 3,3 C 93 % 1027,8 hPa 0,0 l/m 0 min 0 min 0 W/m 6,4 km/h (2 Bft) 100,00 %
21.03.2020 00:22 4,8 C 3,3 C 3,3 C 93 % 1027,8 hPa 0,0 l/m 0 min 0 min 0 W/m 9,7 km/h (2 Bft) 97,87 %
21.03.2020 00:24 4,8 C 3,9 C 3,3 C 93 % 1027,8 hPa 0,0 l/m 0 min 0 min 0 W/m 9,7 km/h (2 Bft) 97,87 %
21.03.2020 00:26 4,8 C 3,9 C 3,3 C 93 % 1027,8 hPa 0,0 l/m 0 min 0 min 0 W/m 6,4 km/h (2 Bft) 97,87 %
21.03.2020 00:28 4,8 C 3,9 C 3,3 C 93 % 1027,8 hPa 0,0 l/m 0 min 0 min 0 W/m 9,7 km/h (2 Bft) 93,62 %
21.03.2020 00:30 4,8 C 3,9 C 3,3 C 93 % 1027,8 hPa 0,0 l/m 0 min 0 min 0 W/m 9,7 km/h (2 Bft) 97,87 %
21.03.2020 00:32 4,8 C 3,9 C 3,3 C 93 % 1027,8 hPa 0,0 l/m 0 min 0 min 0 W/m 9,7 km/h (2 Bft) 95,65 %
21.03.2020 00:34 4,8 C 3,9 C 3,3 C 92 % 1027,8 hPa 0,0 l/m 0 min 0 min 0 W/m 16,1 km/h (3 Bft) 95,74 %
21.03.2020 00:36 4,8 C 3,9 C 3,3 C 92 % 1027,8 hPa 0,0 l/m 0 min 2 min 0 W/m 9,7 km/h (2 Bft) 93,62 %
21.03.2020 00:38 4,8 C 3,9 C 3,3 C 92 % 1027,8 hPa 0,0 l/m 0 min 2 min 0 W/m 6,4 km/h (2 Bft) 95,74 %
21.03.2020 00:40 4,8 C 3,9 C 3,3 C 92 % 1027,8 hPa 0,0 l/m 0 min 2 min 0 W/m 9,7 km/h (2 Bft) 95,74 %
21.03.2020 00:42 4,8 C 3,9 C 3,3 C 92 % 1027,8 hPa 0,0 l/m 0 min 2 min 0 W/m 16,1 km/h (3 Bft) 95,65 %
21.03.2020 00:44 4,8 C 3,9 C 3,3 C 92 % 1027,7 hPa 0,0 l/m 0 min 2 min 0 W/m 9,7 km/h (2 Bft) 93,62 %
21.03.2020 00:46 4,8 C 3,9 C 3,3 C 92 % 1027,7 hPa 0,0 l/m 0 min 2 min 0 W/m 16,1 km/h (3 Bft) 95,74 %
21.03.2020 00:48 4,8 C 3,9 C 3,3 C 92 % 1027,7 hPa 0,0 l/m 0 min 2 min 0 W/m 12,9 km/h (3 Bft) 95,74 %
21.03.2020 00:50 4,8 C 3,9 C 3,3 C 92 % 1027,7 hPa 0,0 l/m 0 min 2 min 0 W/m 9,7 km/h (2 Bft) 95,74 %
21.03.2020 00:52 4,8 C 3,9 C 3,3 C 92 % 1027,8 hPa 0,0 l/m 0 min 2 min 0 W/m 6,4 km/h (2 Bft) 95,74 %
21.03.2020 00:54 4,8 C 3,9 C 3,3 C 92 % 1027,7 hPa 0,0 l/m 0 min 0 min 0 W/m 12,9 km/h (3 Bft) 95,65 %
21.03.2020 00:56 4,8 C 3,9 C 3,3 C 92 % 1027,8 hPa 0,0 l/m 0 min 0 min 0 W/m 16,1 km/h (3 Bft) 95,74 %
21.03.2020 00:58 4,8 C 3,9 C 3,3 C 92 % 1027,8 hPa 0,0 l/m 0 min 2 min 0 W/m 16,1 km/h (3 Bft) 95,74 %
21.03.2020 01:00 4,8 C 3,3 C 3,3 C 92 % 1027,8 hPa 0,0 l/m 0 min 2 min 0 W/m 12,9 km/h (3 Bft) 97,87 %
21.03.2020 01:02 4,8 C 3,3 C 3,3 C 92 % 1027,8 hPa 0,0 l/m 0 min 2 min 0 W/m 9,7 km/h (2 Bft) 95,74 %
21.03.2020 01:04 4,8 C 3,3 C 3,3 C 92 % 1027,9 hPa 0,0 l/m 0 min 2 min 0 W/m 9,7 km/h (2 Bft) 97,87 %
21.03.2020 01:06 4,8 C 3,3 C 3,3 C 92 % 1027,9 hPa 0,0 l/m 0 min 2 min 0 W/m 9,7 km/h (2 Bft) 97,83 %
21.03.2020 01:08 4,8 C 3,3 C 3,3 C 92 % 1027,8 hPa 0,2 l/m 0 min 2 min 0 W/m 9,7 km/h (2 Bft) 95,74 %
21.03.2020 01:10 4,8 C 3,3 C 3,3 C 92 % 1027,8 hPa 0,0 l/m 0 min 2 min 0 W/m 9,7 km/h (2 Bft) 97,87 %
21.03.2020 01:12 4,8 C 3,3 C 2,8 C 92 % 1027,8 hPa 0,0 l/m 0 min 2 min 0 W/m 19,3 km/h (3 Bft) 97,87 %
21.03.2020 01:14 4,8 C 3,3 C 3,3 C 92 % 1027,8 hPa 0,0 l/m 0 min 2 min 0 W/m 9,7 km/h (2 Bft) 97,87 %
21.03.2020 01:16 4,8 C 3,3 C 2,8 C 92 % 1027,8 hPa 0,0 l/m 0 min 2 min 0 W/m 12,9 km/h (3 Bft) 97,87 %
21.03.2020 01:18 4,8 C 3,3 C 2,8 C 92 % 1027,8 hPa 0,0 l/m 0 min 2 min 0 W/m 22,5 km/h (4 Bft) 97,83 %
21.03.2020 01:20 4,8 C 3,3 C 2,8 C 93 % 1027,8 hPa 0,0 l/m 0 min 2 min 0 W/m 12,9 km/h (3 Bft) 97,87 %
21.03.2020 01:22 4,8 C 3,3 C 2,8 C 93 % 1027,8 hPa 0,0 l/m 0 min 2 min 0 W/m 12,9 km/h (3 Bft) 100,00 %
21.03.2020 01:24 4,7 C 3,3 C 2,8 C 93 % 1027,7 hPa 0,0 l/m 0 min 2 min 0 W/m 19,3 km/h (3 Bft) 100,00 %
21.03.2020 01:26 4,7 C 3,3 C 2,8 C 93 % 1027,7 hPa 0,0 l/m 0 min 2 min 0 W/m 16,1 km/h (3 Bft) 100,00 %
21.03.2020 01:28 4,7 C 3,3 C 2,8 C 93 % 1027,7 hPa 0,0 l/m 0 min 2 min 0 W/m 16,1 km/h (3 Bft) 100,00 %
21.03.2020 01:30 4,7 C 3,3 C 2,8 C 93 % 1027,7 hPa 0,2 l/m 0 min 2 min 0 W/m 12,9 km/h (3 Bft) 97,83 %
21.03.2020 01:32 4,7 C 3,3 C 2,8 C 93 % 1027,7 hPa 0,0 l/m 0 min 2 min 0 W/m 16,1 km/h (3 Bft) 97,87 %
21.03.2020 01:34 4,7 C 3,3 C 2,8 C 93 % 1027,7 hPa 0,0 l/m 0 min 0 min 0 W/m 9,7 km/h (2 Bft) 100,00 %
21.03.2020 01:36 4,7 C 3,3 C 2,8 C 93 % 1027,7 hPa 0,0 l/m 0 min 0 min 0 W/m 16,1 km/h (3 Bft) 100,00 %
21.03.2020 01:38 4,7 C 3,3 C 2,8 C 93 % 1027,6 hPa 0,0 l/m 0 min 0 min 0 W/m 12,9 km/h (3 Bft) 97,87 %
21.03.2020 01:40 4,7 C 3,3 C 2,8 C 92 % 1027,6 hPa 0,0 l/m 0 min 0 min 0 W/m 12,9 km/h (3 Bft) 100,00 %
21.03.2020 01:42 4,7 C 3,9 C 2,8 C 92 % 1027,5 hPa 0,0 l/m 0 min 0 min 0 W/m 19,3 km/h (3 Bft) 97,87 %
21.03.2020 01:44 4,7 C 3,9 C 2,8 C 92 % 1027,5 hPa 0,0 l/m 0 min 0 min 0 W/m 19,3 km/h (3 Bft) 100,00 %
21.03.2020 01:46 4,7 C 3,9 C 2,8 C 92 % 1027,5 hPa 0,0 l/m 0 min 0 min 0 W/m 16,1 km/h (3 Bft) 97,87 %
21.03.2020 01:48 4,7 C 3,9 C 2,8 C 92 % 1027,5 hPa 0,0 l/m 0 min 0 min 0 W/m 6,4 km/h (2 Bft) 95,74 %
21.03.2020 01:50 4,7 C 3,9 C 2,8 C 92 % 1027,5 hPa 0,0 l/m 0 min 0 min 0 W/m 0,0 km/h (0 Bft) 97,87 %
21.03.2020 01:52 4,8 C 3,9 C 2,8 C 92 % 1027,5 hPa 0,0 l/m 0 min 0 min 0 W/m 0,0 km/h (0 Bft) 61,70 %
21.03.2020 01:54 4,8 C 3,9 C 2,8 C 92 % 1027,5 hPa 0,0 l/m 0 min 0 min 0 W/m 0,0 km/h (0 Bft) 90,70 %
21.03.2020 01:56 4,8 C 3,9 C 2,8 C 91 % 1027,5 hPa 0,0 l/m 0 min 0 min 0 W/m 0,0 km/h (0 Bft) 97,87 %
21.03.2020 01:58 4,8 C 3,9 C 2,8 C 91 % 1027,5 hPa 0,0 l/m 0 min 0 min 0 W/m 0,0 km/h (0 Bft) 97,87 %
21.03.2020 02:00 4,8 C 3,9 C 2,8 C 91 % 1027,5 hPa 0,0 l/m 0 min 0 min 0 W/m 0,0 km/h (0 Bft) 97,87 %
21.03.2020 02:02 4,8 C 3,9 C 2,8 C 91 % 1027,5 hPa 0,0 l/m 0 min 0 min 0 W/m 0,0 km/h (0 Bft) 97,87 %
21.03.2020 02:04 4,8 C 3,9 C 3,3 C 91 % 1027,5 hPa 0,0 l/m 0 min 0 min 0 W/m 0,0 km/h (0 Bft) 97,83 %
21.03.2020 02:06 4,8 C 3,9 C 2,8 C 91 % 1027,5 hPa 0,0 l/m 0 min 0 min 0 W/m 0,0 km/h (0 Bft) 97,87 %
21.03.2020 02:08 4,8 C 3,9 C 2,8 C 91 % 1027,5 hPa 0,0 l/m 0 min 0 min 0 W/m 0,0 km/h (0 Bft) 97,87 %
21.03.2020 02:10 4,8 C 3,9 C 2,8 C 91 % 1027,4 hPa 0,0 l/m 0 min 0 min 0 W/m 0,0 km/h (0 Bft) 97,87 %
21.03.2020 02:12 4,8 C 3,9 C 2,8 C 91 % 1027,4 hPa 0,0 l/m 0 min 0 min 0 W/m 0,0 km/h (0 Bft) 97,87 %
21.03.2020 02:14 4,8 C 3,9 C 2,8 C 91 % 1027,4 hPa 0,0 l/m 0 min 0 min 0 W/m 0,0 km/h (0 Bft) 97,87 %
21.03.2020 02:16 4,8 C 3,9 C 2,8 C 91 % 1027,4 hPa 0,0 l/m 0 min 0 min 0 W/m 0,0 km/h (0 Bft) 97,83 %
21.03.2020 02:18 4,8 C 3,9 C 2,8 C 91 % 1027,4 hPa 0,0 l/m 0 min 0 min 0 W/m 0,0 km/h (0 Bft) 97,87 %
21.03.2020 02:20 4,8 C 3,3 C 2,8 C 91 % 1027,4 hPa 0,0 l/m 0 min 0 min 0 W/m 0,0 km/h (0 Bft) 95,74 %
21.03.2020 02:22 4,8 C 3,3 C 2,8 C 91 % 1027,4 hPa 0,0 l/m 0 min 0 min 0 W/m 0,0 km/h (0 Bft) 97,87 %
21.03.2020 02:24 4,8 C 3,3 C 2,8 C 91 % 1027,4 hPa 0,0 l/m 0 min 0 min 0 W/m 0,0 km/h (0 Bft) 95,74 %
21.03.2020 02:26 4,7 C 3,3 C 2,8 C 91 % 1027,4 hPa 0,0 l/m 0 min 0 min 0 W/m 0,0 km/h (0 Bft) 95,74 %
21.03.2020 02:28 4,7 C 3,3 C 2,8 C 91 % 1027,3 hPa 0,0 l/m 0 min 0 min 0 W/m 0,0 km/h (0 Bft) 97,83 %
21.03.2020 02:30 4,7 C 3,3 C 2,8 C 91 % 1027,3 hPa 0,0 l/m 0 min 0 min 0 W/m 0,0 km/h (0 Bft) 97,87 %
21.03.2020 02:32 4,7 C 3,3 C 2,8 C 91 % 1027,2 hPa 0,0 l/m 0 min 0 min 0 W/m 0,0 km/h (0 Bft) 95,74 %
21.03.2020 02:34 4,7 C 3,3 C 2,8 C 91 % 1027,3 hPa 0,0 l/m 0 min 0 min 0 W/m 6,4 km/h (2 Bft) 95,74 %
21.03.2020 02:36 4,7 C 3,3 C 2,8 C 91 % 1027,3 hPa 0,0 l/m 0 min 0 min 0 W/m 0,0 km/h (0 Bft) 93,62 %
21.03.2020 02:38 4,6 C 3,3 C 2,8 C 91 % 1027,3 hPa 0,0 l/m 0 min 0 min 0 W/m 0,0 km/h (0 Bft) 95,65 %
21.03.2020 02:40 4,6 C 3,9 C 2,8 C 91 % 1027,3 hPa 0,0 l/m 0 min 0 min 0 W/m 0,0 km/h (0 Bft) 95,74 %
21.03.2020 02:42 4,6 C 3,9 C 2,8 C 91 % 1027,3 hPa 0,0 l/m 0 min 0 min 0 W/m 0,0 km/h (0 Bft) 93,62 %
21.03.2020 02:44 4,6 C 3,9 C 2,8 C 91 % 1027,2 hPa 0,0 l/m 0 min 0 min 0 W/m 0,0 km/h (0 Bft) 95,74 %
21.03.2020 02:46 4,6 C 3,9 C 2,8 C 91 % 1027,2 hPa 0,0 l/m 0 min 0 min 0 W/m 6,4 km/h (2 Bft) 95,74 %
21.03.2020 02:48 4,6 C 3,9 C 2,8 C 91 % 1027,2 hPa 0,0 l/m 0 min 0 min 0 W/m 0,0 km/h (0 Bft) 95,74 %
21.03.2020 02:50 4,6 C 3,9 C 2,8 C 91 % 1027,3 hPa 0,0 l/m 0 min 0 min 0 W/m 0,0 km/h (0 Bft) 97,83 %
21.03.2020 02:52 4,7 C 3,9 C 2,8 C 92 % 1027,2 hPa 0,0 l/m 0 min 0 min 0 W/m 9,7 km/h (2 Bft) 97,87 %
21.03.2020 02:54 4,7 C 3,9 C 3,3 C 92 % 1027,2 hPa 0,0 l/m 0 min 0 min 0 W/m 3,2 km/h (1 Bft) 97,87 %
21.03.2020 02:56 4,7 C 3,9 C 3,3 C 92 % 1027,1 hPa 0,0 l/m 0 min 0 min 0 W/m 6,4 km/h (2 Bft) 97,87 %
21.03.2020 02:58 4,7 C 3,9 C 3,3 C 92 % 1027,1 hPa 0,0 l/m 0 min 0 min 0 W/m 6,4 km/h (2 Bft) 97,87 %
21.03.2020 03:00 4,7 C 3,9 C 3,3 C 92 % 1027,0 hPa 0,0 l/m 0 min 0 min 0 W/m 12,9 km/h (3 Bft) 97,87 %
21.03.2020 03:02 4,7 C 3,9 C 3,3 C 92 % 1027,0 hPa 0,0 l/m 0 min 0 min 0 W/m 3,2 km/h (1 Bft) 97,83 %
21.03.2020 03:04 4,7 C 3,9 C 3,3 C 92 % 1027,0 hPa 0,0 l/m 0 min 0 min 0 W/m 16,1 km/h (3 Bft) 97,87 %
21.03.2020 03:06 4,7 C 3,9 C 3,3 C 92 % 1027,1 hPa 0,0 l/m 0 min 0 min 0 W/m 12,9 km/h (3 Bft) 97,87 %
21.03.2020 03:08 4,7 C 3,9 C 3,3 C 92 % 1027,2 hPa 0,0 l/m 0 min 0 min 0 W/m 9,7 km/h (2 Bft) 97,87 %
21.03.2020 03:10 4,7 C 3,9 C 3,3 C 93 % 1027,2 hPa 0,0 l/m 0 min 0 min 0 W/m 0,0 km/h (0 Bft) 97,87 %
21.03.2020 03:12 4,7 C 3,9 C 3,3 C 93 % 1027,2 hPa 0,0 l/m 0 min 0 min 0 W/m 0,0 km/h (0 Bft) 100,00 %
21.03.2020 03:14 4,7 C 3,9 C 3,3 C 93 % 1027,2 hPa 0,0 l/m 0 min 0 min 0 W/m 0,0 km/h (0 Bft) 100,00 %
21.03.2020 03:16 4,7 C 3,9 C 3,3 C 93 % 1027,2 hPa 0,0 l/m 0 min 0 min 0 W/m 0,0 km/h (0 Bft) 100,00 %
21.03.2020 03:18 4,7 C 3,9 C 3,3 C 93 % 1027,2 hPa 0,0 l/m 0 min 0 min 0 W/m 0,0 km/h (0 Bft) 97,87 %
21.03.2020 03:20 4,8 C 3,9 C 3,3 C 93 % 1027,2 hPa 0,0 l/m 0 min 0 min 0 W/m 0,0 km/h (0 Bft) 100,00 %
21.03.2020 03:22 4,7 C 3,9 C 3,3 C 93 % 1027,1 hPa 0,0 l/m 0 min 0 min 0 W/m 0,0 km/h (0 Bft) 100,00 %
21.03.2020 03:24 4,7 C 3,9 C 3,3 C 93 % 1027,1 hPa 0,0 l/m 0 min 0 min 0 W/m 0,0 km/h (0 Bft) 100,00 %
21.03.2020 03:26 4,7 C 3,9 C 3,3 C 93 % 1027,1 hPa 0,0 l/m 0 min 0 min 0 W/m 12,9 km/h (3 Bft) 97,87 %
21.03.2020 03:28 4,8 C 3,9 C 3,3 C 93 % 1027,1 hPa 0,0 l/m 0 min 0 min 0 W/m 9,7 km/h (2 Bft) 97,87 %
21.03.2020 03:30 4,8 C 3,9 C 3,3 C 93 % 1027,2 hPa 0,0 l/m 0 min 0 min 0 W/m 3,2 km/h (1 Bft) 97,87 %
21.03.2020 03:32 4,7 C 3,9 C 3,3 C 93 % 1027,2 hPa 0,0 l/m 0 min 0 min 0 W/m 12,9 km/h (3 Bft) 97,87 %
21.03.2020 03:34 4,8 C 3,9 C 3,3 C 93 % 1027,2 hPa 0,0 l/m 0 min 0 min 0 W/m 16,1 km/h (3 Bft) 95,74 %
21.03.2020 03:36 4,8 C 3,9 C 3,3 C 93 % 1027,2 hPa 0,0 l/m 0 min 0 min 0 W/m 12,9 km/h (3 Bft) 97,87 %
21.03.2020 03:38 4,8 C 3,9 C 3,3 C 93 % 1027,2 hPa 0,0 l/m 0 min 0 min 0 W/m 6,4 km/h (2 Bft) 95,65 %
21.03.2020 03:40 4,8 C 3,9 C 3,3 C 93 % 1027,2 hPa 0,0 l/m 0 min 0 min 0 W/m 16,1 km/h (3 Bft) 97,87 %
21.03.2020 03:42 4,8 C 3,9 C 3,3 C 93 % 1027,2 hPa 0,0 l/m 0 min 0 min 0 W/m 12,9 km/h (3 Bft) 97,87 %
21.03.2020 03:44 4,8 C 3,9 C 3,3 C 93 % 1027,2 hPa 0,0 l/m 0 min 0 min 0 W/m 0,0 km/h (0 Bft) 97,87 %
21.03.2020 03:46 4,8 C 3,9 C 3,3 C 93 % 1027,2 hPa 0,0 l/m 0 min 0 min 0 W/m 12,9 km/h (3 Bft) 97,87 %
21.03.2020 03:48 4,8 C 3,9 C 3,3 C 93 % 1027,3 hPa 0,0 l/m 0 min 0 min 0 W/m 16,1 km/h (3 Bft) 97,83 %
21.03.2020 03:50 4,8 C 4,4 C 3,3 C 93 % 1027,2 hPa 0,0 l/m 0 min 0 min 0 W/m 19,3 km/h (3 Bft) 97,87 %
21.03.2020 03:52 4,8 C 3,9 C 3,3 C 93 % 1027,3 hPa 0,0 l/m 0 min 0 min 0 W/m 19,3 km/h (3 Bft) 97,87 %
21.03.2020 03:54 4,8 C 3,9 C 3,3 C 93 % 1027,2 hPa 0,0 l/m 0 min 0 min 0 W/m 9,7 km/h (2 Bft) 97,87 %
21.03.2020 03:56 4,7 C 3,9 C 3,3 C 93 % 1027,2 hPa 0,0 l/m 0 min 0 min 0 W/m 9,7 km/h (2 Bft) 95,74 %
21.03.2020 03:58 4,7 C 3,9 C 2,8 C 93 % 1027,2 hPa 0,0 l/m 0 min 0 min 0 W/m 0,0 km/h (0 Bft) 97,87 %
21.03.2020 04:00 4,7 C 3,9 C 2,8 C 93 % 1027,2 hPa 0,0 l/m 0 min 0 min 0 W/m 0,0 km/h (0 Bft) 97,83 %
21.03.2020 04:05 4,7 C 3,9 C 2,8 C 93 % 1027,2 hPa 0,0 l/m 0 min 0 min 0 W/m 9,7 km/h (2 Bft) 92,86 %
21.03.2020 04:06 4,7 C 3,9 C 2,8 C 93 % 1027,2 hPa 0,0 l/m 0 min 0 min 0 W/m 12,9 km/h (3 Bft) 100,00 %
21.03.2020 04:08 4,7 C 3,9 C 2,8 C 93 % 1027,2 hPa 0,0 l/m 0 min 0 min 0 W/m 9,7 km/h (2 Bft) 97,87 %
21.03.2020 04:10 4,7 C 3,9 C 2,8 C 93 % 1027,2 hPa 0,0 l/m 0 min 0 min 0 W/m 12,9 km/h (3 Bft) 97,87 %
21.03.2020 04:12 4,7 C 3,9 C 2,8 C 93 % 1027,2 hPa 0,0 l/m 0 min 0 min 0 W/m 19,3 km/h (3 Bft) 95,65 %
21.03.2020 04:14 4,6 C 3,9 C 2,8 C 93 % 1027,3 hPa 0,0 l/m 0 min 0 min 0 W/m 12,9 km/h (3 Bft) 100,00 %
21.03.2020 04:16 4,6 C 3,9 C 2,8 C 92 % 1027,3 hPa 0,0 l/m 0 min 0 min 0 W/m 0,0 km/h (0 Bft) 97,87 %
21.03.2020 04:18 4,6 C 3,9 C 2,8 C 92 % 1027,3 hPa 0,0 l/m 0 min 0 min 0 W/m 0,0 km/h (0 Bft) 100,00 %
21.03.2020 04:20 4,6 C 3,9 C 2,8 C 92 % 1027,3 hPa 0,0 l/m 0 min 0 min 0 W/m 22,5 km/h (4 Bft) 97,87 %
21.03.2020 04:22 4,6 C 3,9 C 2,8 C 92 % 1027,3 hPa 0,0 l/m 0 min 0 min 0 W/m 3,2 km/h (1 Bft) 97,87 %
21.03.2020 04:24 4,6 C 3,9 C 2,8 C 92 % 1027,3 hPa 0,0 l/m 0 min 0 min 0 W/m 16,1 km/h (3 Bft) 100,00 %
21.03.2020 04:26 4,6 C 3,9 C 2,8 C 92 % 1027,3 hPa 0,0 l/m 0 min 0 min 0 W/m 0,0 km/h (0 Bft) 100,00 %
21.03.2020 04:28 4,5 C 3,9 C 2,8 C 92 % 1027,3 hPa 0,0 l/m 0 min 0 min 0 W/m 9,7 km/h (2 Bft) 100,00 %
21.03.2020 04:30 4,5 C 3,3 C 2,8 C 92 % 1027,2 hPa 0,0 l/m 0 min 0 min 0 W/m 12,9 km/h (3 Bft) 100,00 %
21.03.2020 04:32 4,5 C 3,3 C 2,8 C 92 % 1027,3 hPa 0,0 l/m 0 min 0 min 0 W/m 19,3 km/h (3 Bft) 97,87 %
21.03.2020 04:34 4,4 C 3,3 C 2,8 C 92 % 1027,3 hPa 0,0 l/m 0 min 0 min 0 W/m 9,7 km/h (2 Bft) 100,00 %
21.03.2020 04:36 4,4 C 3,9 C 2,8 C 92 % 1027,3 hPa 0,0 l/m 0 min 0 min 0 W/m 16,1 km/h (3 Bft) 100,00 %
21.03.2020 04:38 4,4 C 3,9 C 2,8 C 92 % 1027,3 hPa 0,0 l/m 0 min 0 min 0 W/m 12,9 km/h (3 Bft) 100,00 %
21.03.2020 04:40 4,4 C 3,3 C 2,8 C 92 % 1027,3 hPa 0,0 l/m 0 min 0 min 0 W/m 12,9 km/h (3 Bft) 97,87 %
21.03.2020 04:42 4,4 C 3,9 C 2,8 C 92 % 1027,2 hPa 0,0 l/m 0 min 0 min 0 W/m 16,1 km/h (3 Bft) 97,87 %
21.03.2020 04:44 4,4 C 3,3 C 2,8 C 92 % 1027,3 hPa 0,0 l/m 0 min 0 min 0 W/m 19,3 km/h (3 Bft) 95,74 %
21.03.2020 04:46 4,4 C 3,3 C 2,8 C 92 % 1027,3 hPa 0,0 l/m 0 min 0 min 0 W/m 12,9 km/h (3 Bft) 100,00 %
21.03.2020 04:48 4,3 C 3,3 C 2,8 C 92 % 1027,3 hPa 0,0 l/m 0 min 0 min 0 W/m 12,9 km/h (3 Bft) 100,00 %
21.03.2020 04:50 4,3 C 3,3 C 2,2 C 92 % 1027,3 hPa 0,0 l/m 0 min 0 min 0 W/m 9,7 km/h (2 Bft) 97,87 %
21.03.2020 04:52 4,3 C 3,3 C 2,8 C 92 % 1027,3 hPa 0,0 l/m 0 min 0 min 0 W/m 16,1 km/h (3 Bft) 97,87 %
21.03.2020 04:54 4,3 C 3,3 C 2,8 C 92 % 1027,4 hPa 0,0 l/m 0 min 0 min 0 W/m 19,3 km/h (3 Bft) 97,87 %
21.03.2020 04:56 4,3 C 3,3 C 2,2 C 92 % 1027,3 hPa 0,0 l/m 0 min 0 min 0 W/m 16,1 km/h (3 Bft) 95,74 %
21.03.2020 04:58 4,3 C 3,3 C 2,2 C 92 % 1027,3 hPa 0,0 l/m 0 min 0 min 0 W/m 19,3 km/h (3 Bft) 95,65 %
21.03.2020 05:00 4,3 C 3,3 C 2,2 C 92 % 1027,3 hPa 0,0 l/m 0 min 0 min 0 W/m 12,9 km/h (3 Bft) 97,87 %
21.03.2020 05:02 4,3 C 3,3 C 2,2 C 92 % 1027,3 hPa 0,0 l/m 0 min 0 min 0 W/m 16,1 km/h (3 Bft) 97,87 %
21.03.2020 05:04 4,3 C 3,3 C 2,2 C 92 % 1027,3 hPa 0,0 l/m 0 min 0 min 0 W/m 9,7 km/h (2 Bft) 93,62 %
21.03.2020 05:06 4,3 C 3,3 C 2,2 C 92 % 1027,3 hPa 0,0 l/m 0 min 0 min 0 W/m 19,3 km/h (3 Bft) 97,87 %
21.03.2020 05:08 4,2 C 3,3 C 2,2 C 92 % 1027,3 hPa 0,0 l/m 0 min 0 min 0 W/m 12,9 km/h (3 Bft) 95,74 %
21.03.2020 05:10 4,2 C 3,3 C 2,2 C 92 % 1027,4 hPa 0,0 l/m 0 min 0 min 0 W/m 16,1 km/h (3 Bft) 93,48 %
21.03.2020 05:12 4,2 C 3,3 C 2,2 C 92 % 1027,4 hPa 0,0 l/m 0 min 0 min 0 W/m 19,3 km/h (3 Bft) 95,74 %
21.03.2020 05:14 4,2 C 3,3 C 2,2 C 92 % 1027,4 hPa 0,0 l/m 0 min 0 min 0 W/m 16,1 km/h (3 Bft) 97,87 %
21.03.2020 05:16 4,2 C 3,3 C 2,2 C 92 % 1027,4 hPa 0,0 l/m 0 min 0 min 0 W/m 16,1 km/h (3 Bft) 97,87 %
21.03.2020 05:18 4,2 C 3,3 C 2,2 C 92 % 1027,4 hPa 0,0 l/m 0 min 0 min 0 W/m 16,1 km/h (3 Bft) 97,87 %
21.03.2020 05:20 4,2 C 3,3 C 2,2 C 92 % 1027,4 hPa 0,0 l/m 0 min 0 min 0 W/m 12,9 km/h (3 Bft) 97,87 %
21.03.2020 05:22 4,1 C 3,3 C 2,2 C 92 % 1027,4 hPa 0,0 l/m 0 min 0 min 0 W/m 16,1 km/h (3 Bft) 97,83 %
21.03.2020 05:24 4,1 C 3,3 C 2,2 C 92 % 1027,4 hPa 0,0 l/m 0 min 0 min 0 W/m 16,1 km/h (3 Bft) 97,87 %
21.03.2020 05:26 4,1 C 3,3 C 2,2 C 92 % 1027,4 hPa 0,0 l/m 0 min 0 min 0 W/m 12,9 km/h (3 Bft) 97,87 %
21.03.2020 05:28 4,1 C 3,3 C 2,2 C 92 % 1027,4 hPa 0,0 l/m 0 min 0 min 0 W/m 16,1 km/h (3 Bft) 97,87 %
21.03.2020 05:30 4,1 C 3,3 C 2,2 C 92 % 1027,4 hPa 0,0 l/m 0 min 0 min 0 W/m 19,3 km/h (3 Bft) 100,00 %
21.03.2020 05:32 4,1 C 3,3 C 2,2 C 92 % 1027,5 hPa 0,0 l/m 0 min 0 min 0 W/m 22,5 km/h (4 Bft) 100,00 %
21.03.2020 05:34 4,1 C 3,3 C 2,2 C 92 % 1027,5 hPa 0,0 l/m 0 min 0 min 0 W/m 16,1 km/h (3 Bft) 100,00 %
21.03.2020 05:36 4,1 C 3,3 C 2,2 C 92 % 1027,5 hPa 0,0 l/m 0 min 0 min 0 W/m 12,9 km/h (3 Bft) 97,87 %
21.03.2020 05:38 4,1 C 3,3 C 2,2 C 92 % 1027,4 hPa 0,0 l/m 0 min 0 min 0 W/m 19,3 km/h (3 Bft) 95,74 %
21.03.2020 05:40 4,0 C 3,3 C 2,2 C 92 % 1027,5 hPa 0,0 l/m 0 min 0 min 0 W/m 12,9 km/h (3 Bft) 97,87 %
21.03.2020 05:42 4,0 C 3,3 C 2,2 C 92 % 1027,5 hPa 0,0 l/m 0 min 0 min 0 W/m 19,3 km/h (3 Bft) 97,87 %
21.03.2020 05:44 4,0 C 3,3 C 2,2 C 92 % 1027,5 hPa 0,0 l/m 0 min 0 min 0 W/m 22,5 km/h (4 Bft) 97,83 %
21.03.2020 05:46 3,9 C 3,3 C 2,2 C 92 % 1027,5 hPa 0,0 l/m 0 min 0 min 0 W/m 16,1 km/h (3 Bft) 97,87 %
21.03.2020 05:48 3,9 C 3,3 C 2,2 C 92 % 1027,5 hPa 0,0 l/m 0 min 0 min 0 W/m 16,1 km/h (3 Bft) 97,87 %
21.03.2020 05:50 3,9 C 3,3 C 2,2 C 92 % 1027,5 hPa 0,0 l/m 0 min 0 min 0 W/m 16,1 km/h (3 Bft) 95,74 %
21.03.2020 05:52 3,9 C 2,8 C 2,2 C 92 % 1027,5 hPa 0,0 l/m 0 min 0 min 0 W/m 9,7 km/h (2 Bft) 97,87 %
21.03.2020 05:54 3,9 C 2,8 C 2,2 C 92 % 1027,6 hPa 0,0 l/m 0 min 0 min 0 W/m 12,9 km/h (3 Bft) 97,87 %
21.03.2020 05:56 3,9 C 3,3 C 2,2 C 92 % 1027,5 hPa 0,0 l/m 0 min 0 min 0 W/m 22,5 km/h (4 Bft) 97,83 %
21.03.2020 05:58 3,8 C 2,8 C 2,2 C 92 % 1027,6 hPa 0,0 l/m 0 min 0 min 0 W/m 16,1 km/h (3 Bft) 97,87 %
21.03.2020 06:00 3,8 C 2,8 C 2,2 C 92 % 1027,6 hPa 0,0 l/m 0 min 0 min 0 W/m 9,7 km/h (2 Bft) 100,00 %
21.03.2020 06:02 3,8 C 2,8 C 1,7 C 92 % 1027,6 hPa 0,0 l/m 0 min 0 min 0 W/m 9,7 km/h (2 Bft) 95,74 %
21.03.2020 06:04 3,8 C 2,8 C 1,7 C 92 % 1027,6 hPa 0,0 l/m 0 min 0 min 0 W/m 9,7 km/h (2 Bft) 97,87 %
21.03.2020 06:08 3,7 C 2,8 C 1,7 C 92 % 1027,6 hPa 0,0 l/m 0 min 0 min 0 W/m 16,1 km/h (3 Bft) 97,85 %
21.03.2020 06:10 3,7 C 2,8 C 1,7 C 92 % 1027,6 hPa 0,0 l/m 0 min 0 min 0 W/m 16,1 km/h (3 Bft) 95,74 %
21.03.2020 06:12 3,7 C 2,8 C 1,7 C 92 % 1027,6 hPa 0,0 l/m 0 min 0 min 0 W/m 9,7 km/h (2 Bft) 95,74 %
21.03.2020 06:14 3,7 C 2,8 C 1,7 C 92 % 1027,6 hPa 0,0 l/m 0 min 0 min 0 W/m 9,7 km/h (2 Bft) 95,74 %
21.03.2020 06:16 3,6 C 2,8 C 1,7 C 92 % 1027,7 hPa 0,0 l/m 0 min 0 min 0 W/m 9,7 km/h (2 Bft) 95,74 %
21.03.2020 06:18 3,6 C 2,8 C 1,7 C 92 % 1027,7 hPa 0,0 l/m 0 min 0 min 0 W/m 0,0 km/h (0 Bft) 95,65 %
21.03.2020 06:20 3,6 C 2,8 C 1,7 C 92 % 1027,7 hPa 0,0 l/m 0 min 0 min 0 W/m 16,1 km/h (3 Bft) 95,74 %
21.03.2020 06:22 3,6 C 2,8 C 1,7 C 91 % 1027,7 hPa 0,0 l/m 0 min 0 min 0 W/m 19,3 km/h (3 Bft) 95,74 %
21.03.2020 06:24 3,6 C 2,8 C 1,7 C 91 % 1027,7 hPa 0,0 l/m 0 min 0 min 0 W/m 12,9 km/h (3 Bft) 93,62 %
21.03.2020 06:26 3,5 C 2,8 C 1,7 C 91 % 1027,8 hPa 0,0 l/m 0 min 0 min 0 W/m 9,7 km/h (2 Bft) 95,74 %
21.03.2020 06:28 3,5 C 2,2 C 1,7 C 91 % 1027,8 hPa 0,0 l/m 0 min 0 min 0 W/m 16,1 km/h (3 Bft) 97,87 %
21.03.2020 06:30 3,4 C 2,8 C 1,7 C 91 % 1027,8 hPa 0,0 l/m 0 min 0 min 0 W/m 16,1 km/h (3 Bft) 95,65 %
21.03.2020 06:32 3,4 C 2,8 C 1,7 C 91 % 1027,8 hPa 0,0 l/m 0 min 0 min 0 W/m 9,7 km/h (2 Bft) 93,62 %
21.03.2020 06:34 3,4 C 2,8 C 1,7 C 91 % 1027,8 hPa 0,0 l/m 0 min 0 min 0 W/m 9,7 km/h (2 Bft) 95,74 %
21.03.2020 06:36 3,4 C 2,2 C 1,7 C 91 % 1027,9 hPa 0,0 l/m 0 min 0 min 0 W/m 9,7 km/h (2 Bft) 95,74 %
21.03.2020 06:38 3,4 C 2,2 C 1,7 C 91 % 1027,9 hPa 0,0 l/m 0 min 0 min 2 W/m 6,4 km/h (2 Bft) 93,62 %
21.03.2020 06:40 3,3 C 2,2 C 1,7 C 91 % 1027,9 hPa 0,0 l/m 0 min 0 min 5 W/m 6,4 km/h (2 Bft) 97,87 %
21.03.2020 06:42 3,3 C 2,8 C 1,7 C 92 % 1027,9 hPa 0,0 l/m 0 min 0 min 6 W/m 12,9 km/h (3 Bft) 97,83 %
21.03.2020 06:44 3,3 C 2,2 C 1,7 C 91 % 1027,8 hPa 0,0 l/m 0 min 0 min 7 W/m 12,9 km/h (3 Bft) 97,87 %
21.03.2020 06:46 3,3 C 2,2 C 1,7 C 91 % 1027,8 hPa 0,0 l/m 0 min 0 min 7 W/m 9,7 km/h (2 Bft) 97,87 %
21.03.2020 06:48 3,3 C 2,2 C 1,7 C 91 % 1027,9 hPa 0,0 l/m 0 min 0 min 9 W/m 6,4 km/h (2 Bft) 95,74 %
21.03.2020 06:50 3,2 C 2,2 C 1,7 C 91 % 1027,9 hPa 0,0 l/m 0 min 0 min 11 W/m 0,0 km/h (0 Bft) 95,74 %
21.03.2020 06:52 3,2 C 2,2 C 1,7 C 91 % 1028,0 hPa 0,0 l/m 0 min 0 min 12 W/m 0,0 km/h (0 Bft) 97,87 %
21.03.2020 06:54 3,2 C 2,2 C 1,7 C 91 % 1027,9 hPa 0,0 l/m 0 min 0 min 12 W/m 9,7 km/h (2 Bft) 97,83 %
21.03.2020 06:56 3,2 C 2,2 C 1,1 C 91 % 1028,0 hPa 0,0 l/m 0 min 0 min 12 W/m 9,7 km/h (2 Bft) 97,87 %
21.03.2020 06:58 3,2 C 2,2 C 1,1 C 91 % 1028,0 hPa 0,0 l/m 0 min 0 min 14 W/m 12,9 km/h (3 Bft) 97,87 %
21.03.2020 07:00 3,1 C 2,2 C 1,1 C 91 % 1028,0 hPa 0,0 l/m 0 min 0 min 16 W/m 12,9 km/h (3 Bft) 93,62 %
21.03.2020 07:02 3,1 C 2,2 C 1,1 C 91 % 1028,0 hPa 0,0 l/m 0 min 0 min 17 W/m 12,9 km/h (3 Bft) 97,87 %
21.03.2020 07:04 3,1 C 2,2 C 1,1 C 91 % 1028,0 hPa 0,0 l/m 0 min 0 min 18 W/m 16,1 km/h (3 Bft) 97,87 %
21.03.2020 07:06 3,0 C 2,2 C 1,1 C 91 % 1028,0 hPa 0,0 l/m 0 min 0 min 19 W/m 12,9 km/h (3 Bft) 97,83 %
21.03.2020 07:08 3,0 C 2,2 C 1,1 C 91 % 1028,0 hPa 0,0 l/m 0 min 0 min 19 W/m 6,4 km/h (2 Bft) 95,74 %
21.03.2020 07:10 2,9 C 2,2 C 1,1 C 91 % 1028,0 hPa 0,0 l/m 0 min 0 min 19 W/m 0,0 km/h (0 Bft) 95,74 %
21.03.2020 07:12 2,9 C 2,2 C 1,1 C 91 % 1028,0 hPa 0,0 l/m 0 min 0 min 20 W/m 0,0 km/h (0 Bft) 93,62 %
21.03.2020 07:14 2,9 C 2,2 C 1,1 C 91 % 1027,9 hPa 0,0 l/m 0 min 0 min 21 W/m 0,0 km/h (0 Bft) 97,87 %
21.03.2020 07:16 2,9 C 2,2 C 1,1 C 91 % 1028,0 hPa 0,0 l/m 0 min 0 min 21 W/m 12,9 km/h (3 Bft) 97,87 %
21.03.2020 07:18 2,8 C 2,2 C 1,1 C 91 % 1028,0 hPa 0,0 l/m 0 min 0 min 23 W/m 9,7 km/h (2 Bft) 95,65 %
21.03.2020 07:20 2,8 C 2,2 C 1,1 C 91 % 1028,0 hPa 0,0 l/m 0 min 0 min 23 W/m 9,7 km/h (2 Bft) 97,87 %
21.03.2020 07:22 2,8 C 2,2 C 1,1 C 91 % 1028,1 hPa 0,0 l/m 0 min 0 min 25 W/m 12,9 km/h (3 Bft) 97,87 %
21.03.2020 07:24 2,8 C 2,2 C 1,1 C 91 % 1028,0 hPa 0,0 l/m 0 min 0 min 25 W/m 0,0 km/h (0 Bft) 97,87 %
21.03.2020 07:26 2,8 C 2,2 C 1,1 C 91 % 1028,0 hPa 0,0 l/m 0 min 0 min 25 W/m 12,9 km/h (3 Bft) 95,74 %
21.03.2020 07:28 2,7 C 2,2 C 1,1 C 91 % 1028,0 hPa 0,0 l/m 0 min 0 min 25 W/m 16,1 km/h (3 Bft) 97,83 %
21.03.2020 07:30 2,7 C 2,2 C 1,1 C 91 % 1028,0 hPa 0,0 l/m 0 min 0 min 26 W/m 9,7 km/h (2 Bft) 97,87 %
21.03.2020 07:32 2,7 C 2,2 C 1,1 C 91 % 1028,0 hPa 0,0 l/m 0 min 0 min 26 W/m 9,7 km/h (2 Bft) 97,87 %
21.03.2020 07:34 2,7 C 2,2 C 1,1 C 91 % 1027,9 hPa 0,0 l/m 0 min 0 min 26 W/m 9,7 km/h (2 Bft) 97,87 %
21.03.2020 07:36 2,7 C 2,2 C 1,1 C 91 % 1027,9 hPa 0,0 l/m 0 min 0 min 26 W/m 9,7 km/h (2 Bft) 97,87 %
21.03.2020 07:38 2,7 C 2,2 C 1,1 C 91 % 1027,9 hPa 0,0 l/m 0 min 0 min 28 W/m 16,1 km/h (3 Bft) 93,62 %
21.03.2020 07:40 2,6 C 2,2 C 1,1 C 90 % 1027,9 hPa 0,0 l/m 0 min 0 min 28 W/m 12,9 km/h (3 Bft) 97,83 %
21.03.2020 07:42 2,6 C 2,2 C 1,1 C 90 % 1027,9 hPa 0,0 l/m 0 min 0 min 28 W/m 9,7 km/h (2 Bft) 97,87 %
21.03.2020 07:44 2,6 C 2,2 C 1,1 C 90 % 1027,8 hPa 0,0 l/m 0 min 0 min 30 W/m 19,3 km/h (3 Bft) 100,00 %
21.03.2020 07:46 2,6 C 2,2 C 1,1 C 90 % 1027,8 hPa 0,0 l/m 0 min 0 min 30 W/m 19,3 km/h (3 Bft) 100,00 %
21.03.2020 07:48 2,6 C 2,2 C 1,1 C 90 % 1027,8 hPa 0,0 l/m 0 min 0 min 30 W/m 9,7 km/h (2 Bft) 100,00 %
21.03.2020 07:50 2,6 C 2,2 C 1,1 C 90 % 1027,8 hPa 0,0 l/m 0 min 0 min 30 W/m 16,1 km/h (3 Bft) 100,00 %
21.03.2020 07:52 2,6 C 2,2 C 1,1 C 90 % 1027,8 hPa 0,0 l/m 0 min 0 min 31 W/m 16,1 km/h (3 Bft) 100,00 %
21.03.2020 07:54 2,6 C 2,2 C 1,1 C 90 % 1027,8 hPa 0,0 l/m 0 min 0 min 32 W/m 12,9 km/h (3 Bft) 100,00 %
21.03.2020 07:56 2,6 C 2,2 C 1,1 C 90 % 1027,8 hPa 0,0 l/m 0 min 0 min 32 W/m 12,9 km/h (3 Bft) 100,00 %
21.03.2020 07:58 2,6 C 2,2 C 1,1 C 90 % 1027,8 hPa 0,0 l/m 0 min 0 min 32 W/m 12,9 km/h (3 Bft) 100,00 %
21.03.2020 08:00 2,6 C 2,2 C 1,1 C 89 % 1027,7 hPa 0,0 l/m 0 min 0 min 33 W/m 9,7 km/h (2 Bft) 100,00 %
21.03.2020 08:02 2,6 C 2,2 C 1,1 C 89 % 1027,7 hPa 0,0 l/m 0 min 0 min 33 W/m 6,4 km/h (2 Bft) 100,00 %
21.03.2020 08:04 2,6 C 2,2 C 1,1 C 89 % 1027,8 hPa 0,0 l/m 0 min 0 min 33 W/m 12,9 km/h (3 Bft) 100,00 %
21.03.2020 08:06 2,6 C 2,2 C 1,1 C 89 % 1027,8 hPa 0,0 l/m 0 min 0 min 35 W/m 12,9 km/h (3 Bft) 100,00 %
21.03.2020 08:08 2,7 C 2,2 C 1,1 C 89 % 1027,8 hPa 0,0 l/m 0 min 0 min 35 W/m 16,1 km/h (3 Bft) 100,00 %
21.03.2020 08:10 2,7 C 2,2 C 1,1 C 89 % 1027,8 hPa 0,0 l/m 0 min 0 min 35 W/m 19,3 km/h (3 Bft) 100,00 %
21.03.2020 08:12 2,7 C 2,2 C 1,1 C 89 % 1027,7 hPa 0,0 l/m 0 min 0 min 36 W/m 9,7 km/h (2 Bft) 100,00 %
21.03.2020 08:14 2,7 C 2,8 C 1,1 C 89 % 1027,8 hPa 0,0 l/m 0 min 0 min 37 W/m 9,7 km/h (2 Bft) 100,00 %
21.03.2020 08:16 2,7 C 2,8 C 1,1 C 89 % 1027,8 hPa 0,0 l/m 0 min 0 min 37 W/m 12,9 km/h (3 Bft) 97,87 %
21.03.2020 08:18 2,7 C 2,8 C 1,1 C 89 % 1027,8 hPa 0,0 l/m 0 min 0 min 39 W/m 12,9 km/h (3 Bft) 100,00 %
21.03.2020 08:20 2,7 C 2,8 C 1,1 C 89 % 1027,8 hPa 0,0 l/m 0 min 0 min 39 W/m 12,9 km/h (3 Bft) 100,00 %
21.03.2020 08:22 2,8 C 2,8 C 1,1 C 89 % 1027,8 hPa 0,0 l/m 0 min 0 min 39 W/m 12,9 km/h (3 Bft) 100,00 %
21.03.2020 08:24 2,8 C 2,8 C 1,1 C 89 % 1027,8 hPa 0,0 l/m 0 min 0 min 40 W/m 6,4 km/h (2 Bft) 97,87 %
21.03.2020 08:26 2,8 C 2,8 C 1,7 C 89 % 1027,8 hPa 0,0 l/m 0 min 0 min 40 W/m 12,9 km/h (3 Bft) 100,00 %
21.03.2020 08:28 2,8 C 2,8 C 1,7 C 89 % 1027,8 hPa 0,0 l/m 0 min 0 min 40 W/m 19,3 km/h (3 Bft) 100,00 %
21.03.2020 08:30 2,8 C 2,8 C 1,7 C 89 % 1027,8 hPa 0,0 l/m 0 min 0 min 40 W/m 12,9 km/h (3 Bft) 97,87 %
21.03.2020 08:32 2,9 C 2,8 C 1,7 C 89 % 1027,8 hPa 0,0 l/m 0 min 0 min 42 W/m 12,9 km/h (3 Bft) 100,00 %
21.03.2020 08:34 2,9 C 2,8 C 1,7 C 88 % 1027,8 hPa 0,0 l/m 0 min 0 min 42 W/m 19,3 km/h (3 Bft) 100,00 %
21.03.2020 08:36 2,9 C 2,8 C 1,7 C 88 % 1027,8 hPa 0,0 l/m 0 min 0 min 42 W/m 16,1 km/h (3 Bft) 37,50 %
21.03.2020 08:38 2,9 C 2,8 C 1,7 C 88 % 1027,8 hPa 0,0 l/m 0 min 0 min 43 W/m 12,9 km/h (3 Bft) 100,00 %
21.03.2020 08:40 3,0 C 3,3 C 1,7 C 88 % 1027,8 hPa 0,0 l/m 0 min 0 min 44 W/m 0,0 km/h (0 Bft) 100,00 %
21.03.2020 08:42 3,1 C 3,3 C 1,7 C 88 % 1027,8 hPa 0,0 l/m 0 min 0 min 55 W/m 19,3 km/h (3 Bft) 100,00 %
21.03.2020 08:44 3,1 C 3,3 C 1,7 C 88 % 1027,8 hPa 0,0 l/m 2 min 0 min 162 W/m 12,9 km/h (3 Bft) 100,00 %
21.03.2020 08:46 3,1 C 3,9 C 1,7 C 88 % 1027,8 hPa 0,0 l/m 2 min 0 min 322 W/m 16,1 km/h (3 Bft) 100,00 %
21.03.2020 08:48 3,2 C 5,6 C 1,7 C 88 % 1027,9 hPa 0,0 l/m 2 min 0 min 330 W/m 12,9 km/h (3 Bft) 100,00 %
21.03.2020 08:50 3,2 C 7,2 C 1,7 C 88 % 1027,8 hPa 0,0 l/m 2 min 0 min 336 W/m 9,7 km/h (2 Bft) 100,00 %
21.03.2020 08:52 3,3 C 7,8 C 2,2 C 88 % 1027,8 hPa 0,0 l/m 2 min 0 min 342 W/m 12,9 km/h (3 Bft) 100,00 %
21.03.2020 08:54 3,4 C 8,3 C 2,2 C 88 % 1027,8 hPa 0,0 l/m 2 min 0 min 349 W/m 16,1 km/h (3 Bft) 100,00 %
21.03.2020 08:56 3,5 C 8,3 C 2,2 C 88 % 1027,8 hPa 0,0 l/m 2 min 0 min 352 W/m 19,3 km/h (3 Bft) 95,74 %
21.03.2020 08:58 3,6 C 8,9 C 2,2 C 88 % 1027,8 hPa 0,0 l/m 2 min 0 min 359 W/m 16,1 km/h (3 Bft) 97,87 %
21.03.2020 09:00 3,7 C 8,9 C 2,2 C 88 % 1027,8 hPa 0,0 l/m 2 min 0 min 365 W/m 12,9 km/h (3 Bft) 95,74 %
21.03.2020 09:02 3,8 C 8,9 C 2,2 C 87 % 1027,8 hPa 0,0 l/m 2 min 0 min 371 W/m 16,1 km/h (3 Bft) 97,87 %
21.03.2020 09:04 3,9 C 8,9 C 2,8 C 87 % 1027,8 hPa 0,0 l/m 2 min 0 min 376 W/m 9,7 km/h (2 Bft) 95,56 %
21.03.2020 09:06 4,1 C 9,4 C 2,8 C 87 % 1027,9 hPa 0,0 l/m 2 min 0 min 382 W/m 0,0 km/h (0 Bft) 93,62 %
21.03.2020 09:08 4,2 C 9,4 C 3,3 C 87 % 1027,8 hPa 0,0 l/m 2 min 0 min 388 W/m 25,7 km/h (4 Bft) 95,74 %
21.03.2020 09:10 4,3 C 10,0 C 5,6 C 86 % 1027,8 hPa 0,0 l/m 2 min 0 min 394 W/m 9,7 km/h (2 Bft) 95,74 %
21.03.2020 09:12 4,4 C 10,0 C 7,2 C 86 % 1027,8 hPa 0,0 l/m 2 min 0 min 400 W/m 9,7 km/h (2 Bft) 95,65 %
21.03.2020 09:14 4,6 C 10,0 C 8,9 C 86 % 1027,8 hPa 0,0 l/m 2 min 0 min 404 W/m 12,9 km/h (3 Bft) 93,62 %
21.03.2020 09:16 4,7 C 10,0 C 9,4 C 86 % 1027,7 hPa 0,0 l/m 2 min 0 min 410 W/m 12,9 km/h (3 Bft) 95,74 %
21.03.2020 09:18 4,8 C 10,0 C 10,0 C 85 % 1027,8 hPa 0,0 l/m 2 min 0 min 416 W/m 12,9 km/h (3 Bft) 95,74 %
21.03.2020 09:20 4,9 C 10,6 C 10,6 C 85 % 1027,8 hPa 0,0 l/m 2 min 0 min 419 W/m 9,7 km/h (2 Bft) 95,74 %
21.03.2020 09:22 5,0 C 10,0 C 10,0 C 85 % 1027,7 hPa 0,0 l/m 2 min 0 min 425 W/m 16,1 km/h (3 Bft) 95,65 %
21.03.2020 09:24 5,1 C 9,4 C 10,0 C 84 % 1027,7 hPa 0,0 l/m 2 min 0 min 431 W/m 19,3 km/h (3 Bft) 93,62 %
21.03.2020 09:26 5,1 C 9,4 C 10,0 C 83 % 1027,7 hPa 0,0 l/m 2 min 0 min 434 W/m 16,1 km/h (3 Bft) 95,74 %
21.03.2020 09:28 5,2 C 10,0 C 10,6 C 83 % 1027,7 hPa 0,0 l/m 2 min 0 min 440 W/m 16,1 km/h (3 Bft) 97,87 %
21.03.2020 09:30 5,3 C 10,6 C 10,6 C 83 % 1027,8 hPa 0,0 l/m 2 min 0 min 448 W/m 19,3 km/h (3 Bft) 97,87 %
21.03.2020 09:32 5,3 C 10,6 C 10,6 C 83 % 1027,7 hPa 0,0 l/m 2 min 0 min 453 W/m 9,7 km/h (2 Bft) 97,87 %
21.03.2020 09:34 5,5 C 11,1 C 11,1 C 83 % 1027,7 hPa 0,0 l/m 2 min 0 min 457 W/m 0,0 km/h (0 Bft) 95,65 %
21.03.2020 09:36 5,6 C 11,1 C 11,7 C 83 % 1027,7 hPa 0,0 l/m 2 min 0 min 464 W/m 0,0 km/h (0 Bft) 97,87 %
21.03.2020 09:38 5,7 C 10,6 C 11,1 C 82 % 1027,7 hPa 0,0 l/m 2 min 0 min 468 W/m 16,1 km/h (3 Bft) 100,00 %
21.03.2020 09:40 5,7 C 11,1 C 11,1 C 82 % 1027,7 hPa 0,0 l/m 2 min 0 min 474 W/m 12,9 km/h (3 Bft) 100,00 %
21.03.2020 09:42 5,8 C 11,1 C 10,6 C 82 % 1027,7 hPa 0,0 l/m 2 min 0 min 479 W/m 0,0 km/h (0 Bft) 97,87 %
21.03.2020 09:44 5,9 C 10,6 C 10,6 C 81 % 1027,7 hPa 0,0 l/m 2 min 0 min 483 W/m 22,5 km/h (4 Bft) 97,87 %
21.03.2020 09:46 5,9 C 11,1 C 11,1 C 81 % 1027,7 hPa 0,0 l/m 2 min 0 min 489 W/m 0,0 km/h (0 Bft) 95,65 %
21.03.2020 09:48 6,0 C 11,1 C 11,1 C 81 % 1027,7 hPa 0,0 l/m 2 min 0 min 492 W/m 9,7 km/h (2 Bft) 100,00 %
21.03.2020 09:50 6,1 C 11,1 C 11,1 C 80 % 1027,6 hPa 0,0 l/m 2 min 0 min 498 W/m 16,1 km/h (3 Bft) 100,00 %
21.03.2020 09:52 6,1 C 11,1 C 11,1 C 80 % 1027,7 hPa 0,0 l/m 2 min 0 min 505 W/m 22,5 km/h (4 Bft) 100,00 %
21.03.2020 09:54 6,2 C 11,7 C 11,1 C 80 % 1027,7 hPa 0,0 l/m 2 min 0 min 508 W/m 12,9 km/h (3 Bft) 100,00 %
21.03.2020 09:56 6,3 C 11,7 C 11,1 C 80 % 1027,6 hPa 0,0 l/m 2 min 0 min 512 W/m 16,1 km/h (3 Bft) 100,00 %
21.03.2020 09:58 6,4 C 11,7 C 6,1 C 80 % 1027,6 hPa 0,0 l/m 2 min 0 min 518 W/m 12,9 km/h (3 Bft) 100,00 %
21.03.2020 10:00 6,5 C 12,2 C 6,1 C 80 % 1027,6 hPa 0,0 l/m 2 min 0 min 527 W/m 6,4 km/h (2 Bft) 100,00 %
21.03.2020 10:02 6,6 C 12,8 C 5,6 C 80 % 1027,6 hPa 0,0 l/m 2 min 0 min 530 W/m 9,7 km/h (2 Bft) 95,74 %
21.03.2020 10:04 6,7 C 12,8 C 5,6 C 80 % 1027,6 hPa 0,0 l/m 2 min 0 min 532 W/m 12,9 km/h (3 Bft) 100,00 %
21.03.2020 10:06 6,8 C 12,2 C 5,6 C 79 % 1027,6 hPa 0,0 l/m 2 min 0 min 533 W/m 12,9 km/h (3 Bft) 100,00 %
21.03.2020 10:08 6,8 C 12,2 C 5,6 C 79 % 1027,6 hPa 0,0 l/m 2 min 0 min 538 W/m 12,9 km/h (3 Bft) 100,00 %
21.03.2020 10:10 6,9 C 12,2 C 5,6 C 79 % 1027,6 hPa 0,0 l/m 2 min 0 min 550 W/m 9,7 km/h (2 Bft) 100,00 %
21.03.2020 10:12 7,0 C 12,2 C 6,1 C 79 % 1027,7 hPa 0,0 l/m 2 min 0 min 551 W/m 16,1 km/h (3 Bft) 95,74 %
21.03.2020 10:14 7,0 C 11,7 C 5,6 C 78 % 1027,6 hPa 0,0 l/m 2 min 0 min 561 W/m 19,3 km/h (3 Bft) 100,00 %
21.03.2020 10:16 7,1 C 11,7 C 6,1 C 77 % 1027,7 hPa 0,0 l/m 2 min 0 min 566 W/m 16,1 km/h (3 Bft) 100,00 %
21.03.2020 10:18 7,1 C 11,7 C 6,1 C 76 % 1027,6 hPa 0,0 l/m 2 min 0 min 573 W/m 19,3 km/h (3 Bft) 95,74 %
21.03.2020 10:20 7,1 C 12,2 C 6,1 C 77 % 1027,7 hPa 0,0 l/m 2 min 0 min 572 W/m 12,9 km/h (3 Bft) 100,00 %
21.03.2020 10:22 7,1 C 12,2 C 6,1 C 76 % 1027,6 hPa 0,0 l/m 2 min 0 min 571 W/m 16,1 km/h (3 Bft) 100,00 %
21.03.2020 10:24 7,2 C 11,7 C 6,1 C 76 % 1027,6 hPa 0,0 l/m 2 min 0 min 573 W/m 16,1 km/h (3 Bft) 97,87 %
21.03.2020 10:26 7,2 C 12,2 C 6,1 C 76 % 1027,6 hPa 0,0 l/m 2 min 0 min 589 W/m 19,3 km/h (3 Bft) 100,00 %
21.03.2020 10:28 7,2 C 12,2 C 6,1 C 76 % 1027,6 hPa 0,0 l/m 2 min 0 min 592 W/m 16,1 km/h (3 Bft) 97,87 %
21.03.2020 10:30 7,3 C 12,8 C 6,1 C 77 % 1027,6 hPa 0,0 l/m 2 min 0 min 597 W/m 12,9 km/h (3 Bft) 100,00 %
21.03.2020 10:32 7,3 C 12,8 C 6,1 C 77 % 1027,6 hPa 0,0 l/m 2 min 0 min 593 W/m 16,1 km/h (3 Bft) 100,00 %
21.03.2020 10:34 7,4 C 12,8 C 6,1 C 77 % 1027,6 hPa 0,0 l/m 2 min 0 min 612 W/m 16,1 km/h (3 Bft) 100,00 %
21.03.2020 10:36 7,5 C 12,8 C 6,7 C 77 % 1027,6 hPa 0,0 l/m 2 min 0 min 619 W/m 19,3 km/h (3 Bft) 97,87 %
21.03.2020 10:38 7,6 C 11,1 C 6,7 C 76 % 1027,6 hPa 0,0 l/m 2 min 0 min 617 W/m 16,1 km/h (3 Bft) 97,87 %
21.03.2020 10:40 7,6 C 12,8 C 6,7 C 75 % 1027,6 hPa 0,0 l/m 2 min 0 min 639 W/m 16,1 km/h (3 Bft) 97,87 %
21.03.2020 10:42 7,6 C 11,7 C 6,7 C 76 % 1027,5 hPa 0,0 l/m 2 min 0 min 656 W/m 12,9 km/h (3 Bft) 100,00 %
21.03.2020 10:44 7,7 C 10,6 C 6,7 C 75 % 1027,6 hPa 0,0 l/m 2 min 0 min 657 W/m 3,2 km/h (1 Bft) 100,00 %
21.03.2020 10:46 7,7 C 12,2 C 6,7 C 76 % 1027,6 hPa 0,0 l/m 2 min 0 min 670 W/m 12,9 km/h (3 Bft) 95,74 %
21.03.2020 10:48 7,7 C 11,1 C 6,7 C 74 % 1027,5 hPa 0,0 l/m 2 min 0 min 670 W/m 16,1 km/h (3 Bft) 97,87 %
21.03.2020 10:50 7,7 C 10,0 C 6,7 C 74 % 1027,6 hPa 0,0 l/m 2 min 0 min 452 W/m 12,9 km/h (3 Bft) 97,87 %
21.03.2020 10:52 7,7 C 11,1 C 6,7 C 74 % 1027,5 hPa 0,0 l/m 2 min 0 min 534 W/m 16,1 km/h (3 Bft) 100,00 %
21.03.2020 10:54 7,6 C 12,2 C 6,7 C 74 % 1027,5 hPa 0,0 l/m 2 min 0 min 698 W/m 16,1 km/h (3 Bft) 97,87 %
21.03.2020 10:56 7,7 C 11,1 C 6,7 C 75 % 1027,5 hPa 0,0 l/m 2 min 0 min 700 W/m 12,9 km/h (3 Bft) 97,83 %
21.03.2020 10:58 7,7 C 11,7 C 6,7 C 74 % 1027,5 hPa 0,0 l/m 2 min 0 min 690 W/m 9,7 km/h (2 Bft) 100,00 %
21.03.2020 11:00 7,7 C 10,0 C 6,7 C 73 % 1027,5 hPa 0,0 l/m 2 min 0 min 682 W/m 22,5 km/h (4 Bft) 100,00 %
21.03.2020 11:02 7,7 C 10,6 C 6,7 C 73 % 1027,5 hPa 0,0 l/m 2 min 0 min 681 W/m 16,1 km/h (3 Bft) 100,00 %
21.03.2020 11:04 7,7 C 12,2 C 6,7 C 73 % 1027,6 hPa 0,0 l/m 2 min 0 min 686 W/m 0,0 km/h (0 Bft) 100,00 %
21.03.2020 11:06 7,7 C 11,1 C 6,7 C 74 % 1027,6 hPa 0,0 l/m 2 min 0 min 698 W/m 25,7 km/h (4 Bft) 95,74 %
21.03.2020 11:08 7,7 C 11,1 C 6,7 C 74 % 1027,6 hPa 0,0 l/m 2 min 0 min 697 W/m 0,0 km/h (0 Bft) 100,00 %
21.03.2020 11:10 7,7 C 11,7 C 6,7 C 74 % 1027,6 hPa 0,0 l/m 2 min 0 min 719 W/m 9,7 km/h (2 Bft) 97,87 %
21.03.2020 11:12 7,8 C 11,7 C 6,7 C 73 % 1027,5 hPa 0,0 l/m 2 min 0 min 725 W/m 19,3 km/h (3 Bft) 97,87 %
21.03.2020 11:14 7,8 C 12,8 C 6,7 C 73 % 1027,5 hPa 0,0 l/m 2 min 0 min 695 W/m 12,9 km/h (3 Bft) 97,87 %
21.03.2020 11:16 7,9 C 13,3 C 7,2 C 74 % 1027,5 hPa 0,0 l/m 2 min 0 min 683 W/m 19,3 km/h (3 Bft) 95,74 %
21.03.2020 11:18 8,0 C 13,3 C 7,2 C 74 % 1027,5 hPa 0,0 l/m 2 min 0 min 688 W/m 19,3 km/h (3 Bft) 97,87 %
21.03.2020 11:20 8,1 C 13,3 C 7,2 C 74 % 1027,5 hPa 0,0 l/m 2 min 0 min 677 W/m 16,1 km/h (3 Bft) 97,83 %
21.03.2020 11:22 8,2 C 14,4 C 7,2 C 74 % 1027,5 hPa 0,0 l/m 2 min 0 min 684 W/m 12,9 km/h (3 Bft) 95,74 %
21.03.2020 11:24 8,3 C 13,3 C 7,2 C 73 % 1027,5 hPa 0,0 l/m 2 min 0 min 684 W/m 22,5 km/h (4 Bft) 95,74 %
21.03.2020 11:26 8,3 C 12,8 C 7,2 C 72 % 1027,5 hPa 0,0 l/m 2 min 0 min 684 W/m 19,3 km/h (3 Bft) 95,74 %
21.03.2020 11:28 8,3 C 12,8 C 7,2 C 72 % 1027,5 hPa 0,0 l/m 2 min 0 min 690 W/m 25,7 km/h (4 Bft) 95,74 %
21.03.2020 11:30 8,3 C 13,3 C 7,2 C 71 % 1027,5 hPa 0,0 l/m 2 min 0 min 689 W/m 29,0 km/h (5 Bft) 95,65 %
21.03.2020 11:32 8,4 C 13,3 C 7,2 C 72 % 1027,5 hPa 0,0 l/m 2 min 0 min 690 W/m 19,3 km/h (3 Bft) 93,62 %
21.03.2020 11:34 8,4 C 13,3 C 7,8 C 71 % 1027,5 hPa 0,0 l/m 2 min 0 min 669 W/m 0,0 km/h (0 Bft) 95,74 %
21.03.2020 11:36 8,5 C 13,3 C 7,8 C 72 % 1027,4 hPa 0,0 l/m 2 min 0 min 699 W/m 12,9 km/h (3 Bft) 97,87 %
21.03.2020 11:38 8,6 C 13,3 C 7,8 C 72 % 1027,4 hPa 0,0 l/m 2 min 0 min 698 W/m 16,1 km/h (3 Bft) 91,49 %
21.03.2020 11:40 8,6 C 13,9 C 7,8 C 71 % 1027,3 hPa 0,0 l/m 2 min 0 min 699 W/m 16,1 km/h (3 Bft) 93,62 %
21.03.2020 11:42 8,7 C 13,3 C 7,8 C 70 % 1027,3 hPa 0,0 l/m 2 min 0 min 699 W/m 19,3 km/h (3 Bft) 93,48 %
21.03.2020 11:44 8,7 C 13,3 C 7,8 C 71 % 1027,3 hPa 0,0 l/m 2 min 0 min 701 W/m 19,3 km/h (3 Bft) 95,74 %
21.03.2020 11:46 8,8 C 13,9 C 7,8 C 71 % 1027,3 hPa 0,0 l/m 2 min 0 min 711 W/m 12,9 km/h (3 Bft) 95,74 %
21.03.2020 11:48 8,8 C 13,9 C 8,3 C 71 % 1027,3 hPa 0,0 l/m 2 min 0 min 730 W/m 16,1 km/h (3 Bft) 95,74 %
21.03.2020 11:50 8,8 C 14,4 C 8,3 C 71 % 1027,3 hPa 0,0 l/m 2 min 0 min 732 W/m 9,7 km/h (2 Bft) 95,74 %
21.03.2020 11:52 8,9 C 14,4 C 8,9 C 71 % 1027,2 hPa 0,0 l/m 2 min 0 min 743 W/m 19,3 km/h (3 Bft) 95,74 %
21.03.2020 11:54 9,1 C 15,0 C 8,9 C 71 % 1027,3 hPa 0,0 l/m 2 min 0 min 729 W/m 12,9 km/h (3 Bft) 97,83 %
21.03.2020 11:56 9,1 C 14,4 C 8,3 C 70 % 1027,3 hPa 0,0 l/m 2 min 0 min 731 W/m 16,1 km/h (3 Bft) 97,87 %
21.03.2020 11:58 9,2 C 15,0 C 8,9 C 70 % 1027,3 hPa 0,0 l/m 2 min 0 min 724 W/m 12,9 km/h (3 Bft) 95,74 %
21.03.2020 12:00 9,3 C 15,0 C 8,9 C 71 % 1027,3 hPa 0,0 l/m 2 min 0 min 735 W/m 12,9 km/h (3 Bft) 95,74 %
21.03.2020 12:02 9,4 C 15,0 C 8,9 C 71 % 1027,3 hPa 0,0 l/m 2 min 0 min 753 W/m 16,1 km/h (3 Bft) 97,87 %
21.03.2020 12:04 9,4 C 15,0 C 8,9 C 70 % 1027,2 hPa 0,0 l/m 2 min 0 min 777 W/m 22,5 km/h (4 Bft) 97,87 %
21.03.2020 12:08 9,4 C 13,9 C 8,9 C 69 % 1027,2 hPa 0,0 l/m 4 min 0 min 739 W/m 16,1 km/h (3 Bft) 93,55 %
21.03.2020 12:10 9,4 C 12,8 C 8,3 C 68 % 1027,2 hPa 0,0 l/m 2 min 0 min 738 W/m 16,1 km/h (3 Bft) 100,00 %
21.03.2020 12:12 9,4 C 14,4 C 8,9 C 70 % 1027,2 hPa 0,0 l/m 2 min 0 min 738 W/m 9,7 km/h (2 Bft) 97,87 %
21.03.2020 12:14 9,4 C 14,4 C 8,9 C 69 % 1027,2 hPa 0,0 l/m 2 min 0 min 754 W/m 22,5 km/h (4 Bft) 100,00 %
21.03.2020 12:16 9,5 C 14,4 C 9,4 C 69 % 1027,1 hPa 0,0 l/m 2 min 0 min 793 W/m 19,3 km/h (3 Bft) 95,74 %
21.03.2020 12:18 9,5 C 13,3 C 9,4 C 69 % 1027,1 hPa 0,0 l/m 2 min 0 min 826 W/m 6,4 km/h (2 Bft) 97,83 %
21.03.2020 12:20 9,4 C 12,2 C 8,9 C 68 % 1027,1 hPa 0,0 l/m 2 min 0 min 393 W/m 16,1 km/h (3 Bft) 100,00 %
21.03.2020 12:22 9,4 C 13,3 C 8,9 C 69 % 1027,1 hPa 0,0 l/m 2 min 0 min 651 W/m 25,7 km/h (4 Bft) 100,00 %
21.03.2020 12:24 9,5 C 15,0 C 9,4 C 69 % 1027,1 hPa 0,0 l/m 2 min 0 min 788 W/m 6,4 km/h (2 Bft) 100,00 %
21.03.2020 12:26 9,6 C 13,9 C 9,4 C 70 % 1027,2 hPa 0,0 l/m 2 min 0 min 800 W/m 19,3 km/h (3 Bft) 97,87 %
21.03.2020 12:28 9,5 C 11,7 C 8,9 C 68 % 1027,1 hPa 0,0 l/m 2 min 0 min 565 W/m 22,5 km/h (4 Bft) 100,00 %
21.03.2020 12:30 9,5 C 12,2 C 8,9 C 69 % 1027,2 hPa 0,0 l/m 0 min 0 min 211 W/m 0,0 km/h (0 Bft) 100,00 %
21.03.2020 12:32 9,6 C 13,9 C 9,4 C 69 % 1027,2 hPa 0,0 l/m 2 min 0 min 586 W/m 0,0 km/h (0 Bft) 100,00 %
21.03.2020 12:34 9,6 C 14,4 C 10,0 C 69 % 1027,2 hPa 0,0 l/m 2 min 0 min 784 W/m 16,1 km/h (3 Bft) 97,87 %
21.03.2020 12:36 9,6 C 14,4 C 10,0 C 69 % 1027,3 hPa 0,0 l/m 2 min 0 min 817 W/m 22,5 km/h (4 Bft) 97,87 %
21.03.2020 12:38 9,7 C 13,3 C 10,0 C 68 % 1027,2 hPa 0,0 l/m 2 min 0 min 830 W/m 16,1 km/h (3 Bft) 100,00 %
21.03.2020 12:40 9,7 C 12,2 C 10,0 C 67 % 1027,1 hPa 0,0 l/m 2 min 0 min 830 W/m 19,3 km/h (3 Bft) 100,00 %
21.03.2020 12:42 9,6 C 12,8 C 11,7 C 67 % 1027,0 hPa 0,0 l/m 2 min 0 min 834 W/m 19,3 km/h (3 Bft) 100,00 %
21.03.2020 12:44 9,6 C 12,2 C 11,1 C 67 % 1027,1 hPa 0,0 l/m 2 min 0 min 861 W/m 29,0 km/h (5 Bft) 97,87 %
21.03.2020 12:46 9,5 C 10,6 C 9,4 C 66 % 1027,1 hPa 0,0 l/m 2 min 0 min 571 W/m 19,3 km/h (3 Bft) 97,87 %
21.03.2020 12:48 9,4 C 11,1 C 10,6 C 66 % 1027,0 hPa 0,0 l/m 0 min 0 min 165 W/m 35,4 km/h (5 Bft) 100,00 %
21.03.2020 12:50 9,4 C 13,3 C 13,3 C 67 % 1027,1 hPa 0,0 l/m 2 min 0 min 620 W/m 12,9 km/h (3 Bft) 100,00 %
21.03.2020 12:52 9,5 C 14,4 C 15,0 C 68 % 1027,0 hPa 0,0 l/m 2 min 0 min 805 W/m 16,1 km/h (3 Bft) 100,00 %
21.03.2020 12:54 9,6 C 13,3 C 13,3 C 67 % 1027,0 hPa 0,0 l/m 2 min 0 min 805 W/m 9,7 km/h (2 Bft) 97,87 %
21.03.2020 12:56 9,6 C 12,2 C 12,2 C 66 % 1027,0 hPa 0,0 l/m 2 min 0 min 805 W/m 22,5 km/h (4 Bft) 97,87 %
21.03.2020 12:58 9,6 C 12,8 C 12,2 C 67 % 1027,0 hPa 0,0 l/m 2 min 0 min 794 W/m 12,9 km/h (3 Bft) 100,00 %
21.03.2020 13:00 9,6 C 13,3 C 13,9 C 67 % 1027,0 hPa 0,0 l/m 2 min 0 min 341 W/m 22,5 km/h (4 Bft) 100,00 %
21.03.2020 13:02 9,7 C 15,0 C 15,0 C 66 % 1027,0 hPa 0,0 l/m 2 min 0 min 778 W/m 22,5 km/h (4 Bft) 95,74 %
21.03.2020 13:04 9,8 C 15,0 C 16,1 C 67 % 1027,0 hPa 0,0 l/m 2 min 0 min 762 W/m 16,1 km/h (3 Bft) 97,83 %
21.03.2020 13:06 9,9 C 15,0 C 15,6 C 67 % 1027,0 hPa 0,0 l/m 2 min 0 min 750 W/m 32,2 km/h (5 Bft) 97,87 %
21.03.2020 13:08 9,9 C 15,0 C 15,6 C 66 % 1027,0 hPa 0,0 l/m 2 min 0 min 748 W/m 19,3 km/h (3 Bft) 95,74 %
21.03.2020 13:10 10,0 C 14,4 C 15,6 C 65 % 1027,0 hPa 0,0 l/m 2 min 0 min 737 W/m 0,0 km/h (0 Bft) 97,87 %
21.03.2020 13:12 10,0 C 13,9 C 15,6 C 64 % 1027,0 hPa 0,0 l/m 2 min 0 min 713 W/m 16,1 km/h (3 Bft) 97,87 %
21.03.2020 13:14 10,1 C 15,0 C 16,1 C 65 % 1027,0 hPa 0,0 l/m 2 min 0 min 731 W/m 9,7 km/h (2 Bft) 97,83 %
21.03.2020 13:16 10,1 C 13,9 C 14,4 C 65 % 1026,9 hPa 0,0 l/m 2 min 0 min 737 W/m 0,0 km/h (0 Bft) 97,87 %
21.03.2020 13:18 10,2 C 14,4 C 15,6 C 64 % 1027,0 hPa 0,0 l/m 2 min 0 min 738 W/m 0,0 km/h (0 Bft) 97,87 %
21.03.2020 13:20 10,2 C 13,9 C 15,0 C 63 % 1026,9 hPa 0,0 l/m 2 min 0 min 738 W/m 0,0 km/h (0 Bft) 97,87 %
21.03.2020 13:22 10,2 C 14,4 C 14,4 C 62 % 1026,9 hPa 0,0 l/m 2 min 0 min 751 W/m 16,1 km/h (3 Bft) 97,87 %
21.03.2020 13:24 10,3 C 15,0 C 15,0 C 62 % 1026,9 hPa 0,0 l/m 2 min 0 min 757 W/m 16,1 km/h (3 Bft) 97,87 %
21.03.2020 13:26 10,3 C 13,9 C 13,9 C 62 % 1026,9 hPa 0,0 l/m 2 min 0 min 789 W/m 12,9 km/h (3 Bft) 97,83 %
21.03.2020 13:28 10,3 C 13,9 C 13,9 C 62 % 1026,9 hPa 0,0 l/m 2 min 0 min 789 W/m 16,1 km/h (3 Bft) 95,74 %
21.03.2020 13:30 10,3 C 14,4 C 12,8 C 62 % 1026,9 hPa 0,0 l/m 2 min 0 min 733 W/m 12,9 km/h (3 Bft) 97,87 %
21.03.2020 13:32 10,3 C 14,4 C 12,8 C 62 % 1026,8 hPa 0,0 l/m 2 min 0 min 752 W/m 16,1 km/h (3 Bft) 97,87 %
21.03.2020 13:34 10,4 C 15,6 C 12,2 C 63 % 1026,9 hPa 0,0 l/m 2 min 0 min 743 W/m 3,2 km/h (1 Bft) 95,74 %
21.03.2020 13:36 10,5 C 15,0 C 12,2 C 63 % 1026,8 hPa 0,0 l/m 2 min 0 min 730 W/m 16,1 km/h (3 Bft) 95,74 %
21.03.2020 13:38 10,6 C 15,6 C 12,8 C 62 % 1026,9 hPa 0,0 l/m 2 min 0 min 729 W/m 9,7 km/h (2 Bft) 97,83 %
21.03.2020 13:40 10,6 C 16,1 C 12,8 C 61 % 1026,8 hPa 0,0 l/m 2 min 0 min 742 W/m 16,1 km/h (3 Bft) 95,74 %
21.03.2020 13:42 10,7 C 16,1 C 12,2 C 60 % 1026,8 hPa 0,0 l/m 2 min 0 min 748 W/m 12,9 km/h (3 Bft) 95,74 %
21.03.2020 13:44 10,8 C 15,6 C 11,7 C 61 % 1026,8 hPa 0,0 l/m 2 min 0 min 770 W/m 9,7 km/h (2 Bft) 95,74 %
21.03.2020 13:46 10,9 C 16,7 C 12,2 C 62 % 1026,8 hPa 0,0 l/m 2 min 0 min 749 W/m 0,0 km/h (0 Bft) 95,74 %
21.03.2020 13:48 11,0 C 17,2 C 12,2 C 63 % 1026,8 hPa 0,0 l/m 2 min 0 min 735 W/m 0,0 km/h (0 Bft) 93,62 %
21.03.2020 13:50 11,1 C 16,1 C 11,7 C 61 % 1026,8 hPa 0,0 l/m 2 min 0 min 726 W/m 0,0 km/h (0 Bft) 93,48 %
21.03.2020 13:52 11,2 C 16,1 C 11,7 C 61 % 1026,9 hPa 0,0 l/m 2 min 0 min 748 W/m 9,7 km/h (2 Bft) 95,74 %
21.03.2020 13:54 11,2 C 16,1 C 11,7 C 60 % 1026,8 hPa 0,0 l/m 2 min 0 min 752 W/m 16,1 km/h (3 Bft) 95,74 %
21.03.2020 13:56 11,2 C 16,1 C 11,7 C 61 % 1026,7 hPa 0,0 l/m 2 min 0 min 768 W/m 22,5 km/h (4 Bft) 97,87 %
21.03.2020 13:58 11,2 C 14,4 C 11,7 C 61 % 1026,8 hPa 0,0 l/m 2 min 0 min 782 W/m 3,2 km/h (1 Bft) 93,62 %
21.03.2020 14:00 11,1 C 13,3 C 11,1 C 59 % 1026,8 hPa 0,0 l/m 2 min 0 min 782 W/m 25,7 km/h (4 Bft) 93,62 %
21.03.2020 14:02 11,1 C 13,9 C 11,1 C 59 % 1026,7 hPa 0,0 l/m 2 min 0 min 679 W/m 16,1 km/h (3 Bft) 95,65 %
21.03.2020 14:04 10,9 C 13,9 C 10,6 C 58 % 1026,7 hPa 0,0 l/m 2 min 0 min 552 W/m 22,5 km/h (4 Bft) 93,62 %
21.03.2020 14:06 10,9 C 14,4 C 11,1 C 59 % 1026,7 hPa 0,0 l/m 2 min 0 min 710 W/m 19,3 km/h (3 Bft) 97,87 %
21.03.2020 14:08 10,9 C 14,4 C 11,1 C 59 % 1026,8 hPa 0,0 l/m 2 min 0 min 689 W/m 22,5 km/h (4 Bft) 97,87 %
21.03.2020 14:10 10,8 C 14,4 C 11,1 C 59 % 1026,7 hPa 0,0 l/m 2 min 0 min 682 W/m 16,1 km/h (3 Bft) 97,87 %
21.03.2020 14:12 10,9 C 15,6 C 11,1 C 60 % 1026,7 hPa 0,0 l/m 2 min 0 min 673 W/m 9,7 km/h (2 Bft) 95,74 %
21.03.2020 14:14 10,9 C 15,0 C 11,1 C 59 % 1026,7 hPa 0,0 l/m 2 min 0 min 674 W/m 16,1 km/h (3 Bft) 93,48 %
21.03.2020 14:16 10,9 C 15,0 C 11,1 C 57 % 1026,7 hPa 0,0 l/m 2 min 0 min 671 W/m 16,1 km/h (3 Bft) 95,74 %
21.03.2020 14:18 10,8 C 14,4 C 11,1 C 57 % 1026,6 hPa 0,0 l/m 2 min 0 min 671 W/m 25,7 km/h (4 Bft) 93,62 %
21.03.2020 14:20 10,8 C 14,4 C 11,1 C 57 % 1026,6 hPa 0,0 l/m 2 min 0 min 668 W/m 19,3 km/h (3 Bft) 97,87 %
21.03.2020 14:22 10,8 C 14,4 C 10,6 C 57 % 1026,7 hPa 0,0 l/m 2 min 0 min 665 W/m 16,1 km/h (3 Bft) 97,87 %
21.03.2020 14:24 10,8 C 14,4 C 10,6 C 56 % 1026,6 hPa 0,0 l/m 2 min 0 min 662 W/m 19,3 km/h (3 Bft) 97,87 %
21.03.2020 14:26 10,7 C 13,9 C 10,6 C 56 % 1026,6 hPa 0,0 l/m 2 min 0 min 660 W/m 22,5 km/h (4 Bft) 97,83 %
21.03.2020 14:28 10,7 C 14,4 C 11,1 C 57 % 1026,7 hPa 0,0 l/m 2 min 0 min 659 W/m 16,1 km/h (3 Bft) 97,87 %
21.03.2020 14:30 10,7 C 15,0 C 11,1 C 58 % 1026,6 hPa 0,0 l/m 2 min 0 min 685 W/m 22,5 km/h (4 Bft) 97,87 %
21.03.2020 14:32 10,8 C 14,4 C 11,1 C 57 % 1026,5 hPa 0,0 l/m 2 min 0 min 715 W/m 22,5 km/h (4 Bft) 95,74 %
21.03.2020 14:34 10,8 C 14,4 C 11,1 C 58 % 1026,5 hPa 0,0 l/m 2 min 0 min 717 W/m 16,1 km/h (3 Bft) 97,87 %
21.03.2020 14:36 10,8 C 14,4 C 11,7 C 59 % 1026,5 hPa 0,0 l/m 2 min 0 min 687 W/m 19,3 km/h (3 Bft) 97,83 %
21.03.2020 14:38 10,9 C 15,0 C 11,7 C 59 % 1026,5 hPa 0,0 l/m 2 min 0 min 673 W/m 19,3 km/h (3 Bft) 97,87 %
21.03.2020 14:40 10,9 C 14,4 C 11,7 C 61 % 1026,5 hPa 0,0 l/m 2 min 0 min 664 W/m 25,7 km/h (4 Bft) 97,87 %
21.03.2020 14:42 10,9 C 15,0 C 11,7 C 60 % 1026,4 hPa 0,0 l/m 2 min 0 min 682 W/m 16,1 km/h (3 Bft) 95,74 %
21.03.2020 14:44 10,9 C 14,4 C 11,1 C 60 % 1026,4 hPa 0,0 l/m 2 min 0 min 673 W/m 29,0 km/h (5 Bft) 97,87 %
21.03.2020 14:46 10,9 C 14,4 C 11,1 C 60 % 1026,5 hPa 0,0 l/m 2 min 0 min 633 W/m 22,5 km/h (4 Bft) 97,87 %
21.03.2020 14:48 10,9 C 14,4 C 11,1 C 60 % 1026,4 hPa 0,0 l/m 2 min 0 min 629 W/m 16,1 km/h (3 Bft) 97,83 %
21.03.2020 14:50 10,9 C 14,4 C 11,1 C 61 % 1026,4 hPa 0,0 l/m 2 min 0 min 642 W/m 16,1 km/h (3 Bft) 95,74 %
21.03.2020 14:52 10,9 C 14,4 C 11,1 C 60 % 1026,4 hPa 0,0 l/m 2 min 0 min 644 W/m 19,3 km/h (3 Bft) 97,87 %
21.03.2020 14:54 10,9 C 13,9 C 10,6 C 60 % 1026,4 hPa 0,0 l/m 2 min 0 min 650 W/m 22,5 km/h (4 Bft) 97,87 %
21.03.2020 14:56 10,8 C 12,2 C 10,0 C 59 % 1026,3 hPa 0,0 l/m 2 min 0 min 495 W/m 25,7 km/h (4 Bft) 97,87 %
21.03.2020 14:58 10,7 C 12,8 C 10,0 C 59 % 1026,4 hPa 0,0 l/m 2 min 0 min 506 W/m 22,5 km/h (4 Bft) 100,00 %
21.03.2020 15:00 10,7 C 13,9 C 10,6 C 60 % 1026,4 hPa 0,0 l/m 2 min 0 min 600 W/m 16,1 km/h (3 Bft) 100,00 %
21.03.2020 15:02 10,6 C 13,9 C 10,6 C 60 % 1026,4 hPa 0,0 l/m 2 min 0 min 587 W/m 19,3 km/h (3 Bft) 97,87 %
21.03.2020 15:04 10,6 C 13,9 C 10,6 C 60 % 1026,4 hPa 0,0 l/m 2 min 0 min 581 W/m 22,5 km/h (4 Bft) 97,87 %
21.03.2020 15:06 10,6 C 13,9 C 10,6 C 60 % 1026,4 hPa 0,0 l/m 2 min 0 min 572 W/m 16,1 km/h (3 Bft) 97,87 %
21.03.2020 15:08 10,6 C 14,4 C 11,1 C 61 % 1026,4 hPa 0,0 l/m 2 min 0 min 569 W/m 19,3 km/h (3 Bft) 100,00 %
21.03.2020 15:10 10,7 C 14,4 C 11,1 C 61 % 1026,4 hPa 0,0 l/m 2 min 0 min 565 W/m 25,7 km/h (4 Bft) 100,00 %
21.03.2020 15:12 10,7 C 14,4 C 11,1 C 61 % 1026,5 hPa 0,0 l/m 2 min 0 min 562 W/m 22,5 km/h (4 Bft) 100,00 %
21.03.2020 15:14 10,7 C 13,9 C 10,6 C 59 % 1026,4 hPa 0,0 l/m 2 min 0 min 563 W/m 25,7 km/h (4 Bft) 100,00 %
21.03.2020 15:16 10,8 C 14,4 C 11,1 C 60 % 1026,5 hPa 0,0 l/m 2 min 0 min 557 W/m 22,5 km/h (4 Bft) 100,00 %
21.03.2020 15:18 10,8 C 14,4 C 11,1 C 60 % 1026,4 hPa 0,0 l/m 2 min 0 min 552 W/m 22,5 km/h (4 Bft) 100,00 %
21.03.2020 15:20 10,8 C 13,9 C 11,1 C 59 % 1026,4 hPa 0,0 l/m 2 min 0 min 547 W/m 19,3 km/h (3 Bft) 100,00 %
21.03.2020 15:22 10,8 C 14,4 C 11,1 C 61 % 1026,4 hPa 0,0 l/m 2 min 0 min 539 W/m 22,5 km/h (4 Bft) 100,00 %
21.03.2020 15:24 10,8 C 13,9 C 10,6 C 59 % 1026,3 hPa 0,0 l/m 2 min 0 min 536 W/m 19,3 km/h (3 Bft) 100,00 %
21.03.2020 15:26 10,8 C 13,9 C 11,1 C 60 % 1026,3 hPa 0,0 l/m 2 min 0 min 519 W/m 16,1 km/h (3 Bft) 100,00 %
21.03.2020 15:28 10,8 C 13,9 C 10,6 C 60 % 1026,4 hPa 0,0 l/m 2 min 0 min 489 W/m 22,5 km/h (4 Bft) 100,00 %
21.03.2020 15:30 10,7 C 13,9 C 10,6 C 60 % 1026,3 hPa 0,0 l/m 2 min 0 min 525 W/m 19,3 km/h (3 Bft) 100,00 %
21.03.2020 15:32 10,7 C 13,3 C 10,6 C 59 % 1026,3 hPa 0,0 l/m 2 min 0 min 518 W/m 16,1 km/h (3 Bft) 100,00 %
21.03.2020 15:34 10,7 C 12,8 C 10,6 C 59 % 1026,3 hPa 0,0 l/m 2 min 0 min 515 W/m 22,5 km/h (4 Bft) 100,00 %
21.03.2020 15:36 10,6 C 12,8 C 10,6 C 58 % 1026,4 hPa 0,0 l/m 2 min 0 min 505 W/m 19,3 km/h (3 Bft) 100,00 %
21.03.2020 15:38 10,6 C 12,8 C 10,0 C 58 % 1026,4 hPa 0,0 l/m 2 min 0 min 502 W/m 22,5 km/h (4 Bft) 100,00 %
21.03.2020 15:40 10,5 C 13,3 C 10,6 C 58 % 1026,4 hPa 0,0 l/m 2 min 0 min 497 W/m 19,3 km/h (3 Bft) 100,00 %
21.03.2020 15:42 10,4 C 12,8 C 10,6 C 58 % 1026,4 hPa 0,0 l/m 2 min 0 min 492 W/m 19,3 km/h (3 Bft) 100,00 %
21.03.2020 15:44 10,4 C 12,8 C 10,6 C 58 % 1026,3 hPa 0,0 l/m 2 min 0 min 484 W/m 32,2 km/h (5 Bft) 100,00 %
21.03.2020 15:46 10,4 C 13,3 C 10,6 C 59 % 1026,3 hPa 0,0 l/m 2 min 0 min 477 W/m 19,3 km/h (3 Bft) 100,00 %
21.03.2020 15:48 10,4 C 13,3 C 10,6 C 59 % 1026,4 hPa 0,0 l/m 2 min 0 min 477 W/m 22,5 km/h (4 Bft) 100,00 %
21.03.2020 15:50 10,4 C 12,8 C 10,6 C 58 % 1026,3 hPa 0,0 l/m 2 min 0 min 472 W/m 38,6 km/h (5 Bft) 100,00 %
21.03.2020 15:52 10,3 C 12,8 C 11,1 C 58 % 1026,3 hPa 0,0 l/m 2 min 0 min 467 W/m 22,5 km/h (4 Bft) 100,00 %
21.03.2020 15:54 10,3 C 12,8 C 11,1 C 58 % 1026,3 hPa 0,0 l/m 2 min 0 min 463 W/m 19,3 km/h (3 Bft) 100,00 %
21.03.2020 15:56 10,3 C 12,8 C 10,6 C 58 % 1026,3 hPa 0,0 l/m 2 min 0 min 455 W/m 19,3 km/h (3 Bft) 100,00 %
21.03.2020 15:58 10,3 C 12,8 C 11,1 C 58 % 1026,3 hPa 0,0 l/m 2 min 0 min 450 W/m 25,7 km/h (4 Bft) 100,00 %
21.03.2020 16:00 10,2 C 12,8 C 11,7 C 57 % 1026,3 hPa 0,0 l/m 2 min 0 min 447 W/m 32,2 km/h (5 Bft) 100,00 %
21.03.2020 16:02 10,2 C 12,8 C 12,2 C 57 % 1026,3 hPa 0,0 l/m 2 min 0 min 442 W/m 19,3 km/h (3 Bft) 97,87 %
21.03.2020 16:04 10,2 C 12,8 C 12,8 C 58 % 1026,3 hPa 0,0 l/m 2 min 0 min 434 W/m 22,5 km/h (4 Bft) 100,00 %
21.03.2020 16:06 10,1 C 12,8 C 13,3 C 58 % 1026,3 hPa 0,0 l/m 2 min 0 min 430 W/m 19,3 km/h (3 Bft) 97,87 %
21.03.2020 16:08 10,1 C 12,8 C 13,3 C 58 % 1026,2 hPa 0,0 l/m 2 min 0 min 425 W/m 16,1 km/h (3 Bft) 97,87 %
21.03.2020 16:10 10,1 C 12,8 C 12,8 C 59 % 1026,3 hPa 0,0 l/m 2 min 0 min 419 W/m 16,1 km/h (3 Bft) 100,00 %
21.03.2020 16:12 10,1 C 12,8 C 12,8 C 58 % 1026,3 hPa 0,0 l/m 2 min 0 min 413 W/m 25,7 km/h (4 Bft) 100,00 %
21.03.2020 16:14 10,1 C 12,2 C 13,3 C 56 % 1026,3 hPa 0,0 l/m 2 min 0 min 411 W/m 32,2 km/h (5 Bft) 100,00 %
21.03.2020 16:16 10,1 C 12,2 C 13,3 C 57 % 1026,3 hPa 0,0 l/m 2 min 0 min 404 W/m 38,6 km/h (5 Bft) 100,00 %
21.03.2020 16:18 10,0 C 12,2 C 13,3 C 57 % 1026,3 hPa 0,0 l/m 2 min 0 min 398 W/m 22,5 km/h (4 Bft) 95,74 %
21.03.2020 16:20 10,0 C 12,2 C 13,3 C 58 % 1026,3 hPa 0,0 l/m 2 min 0 min 394 W/m 12,9 km/h (3 Bft) 95,74 %
21.03.2020 16:22 9,9 C 12,2 C 12,2 C 58 % 1026,3 hPa 0,0 l/m 2 min 0 min 387 W/m 25,7 km/h (4 Bft) 97,83 %
21.03.2020 16:24 9,9 C 12,2 C 10,6 C 57 % 1026,2 hPa 0,0 l/m 2 min 0 min 382 W/m 19,3 km/h (3 Bft) 97,87 %
21.03.2020 16:26 9,9 C 12,2 C 10,6 C 57 % 1026,3 hPa 0,0 l/m 2 min 0 min 377 W/m 22,5 km/h (4 Bft) 95,74 %
21.03.2020 16:28 9,8 C 11,7 C 11,1 C 56 % 1026,3 hPa 0,0 l/m 2 min 0 min 370 W/m 29,0 km/h (5 Bft) 97,87 %
21.03.2020 16:30 9,8 C 11,7 C 11,1 C 57 % 1026,3 hPa 0,0 l/m 2 min 0 min 365 W/m 16,1 km/h (3 Bft) 95,74 %
21.03.2020 16:32 9,8 C 11,7 C 10,6 C 57 % 1026,2 hPa 0,0 l/m 2 min 0 min 360 W/m 19,3 km/h (3 Bft) 95,65 %
21.03.2020 16:34 9,7 C 12,2 C 10,0 C 57 % 1026,2 hPa 0,0 l/m 2 min 0 min 354 W/m 22,5 km/h (4 Bft) 95,74 %
21.03.2020 16:36 9,7 C 11,7 C 9,4 C 57 % 1026,3 hPa 0,0 l/m 2 min 0 min 349 W/m 19,3 km/h (3 Bft) 93,62 %
21.03.2020 16:38 9,7 C 11,7 C 8,9 C 58 % 1026,2 hPa 0,0 l/m 2 min 0 min 346 W/m 22,5 km/h (4 Bft) 95,74 %
21.03.2020 16:40 9,7 C 12,2 C 8,9 C 58 % 1026,2 hPa 0,0 l/m 2 min 0 min 337 W/m 19,3 km/h (3 Bft) 95,74 %
21.03.2020 16:42 9,7 C 11,7 C 8,3 C 58 % 1026,2 hPa 0,0 l/m 2 min 0 min 330 W/m 16,1 km/h (3 Bft) 93,62 %
21.03.2020 16:44 9,6 C 11,7 C 8,3 C 58 % 1026,2 hPa 0,0 l/m 2 min 0 min 324 W/m 22,5 km/h (4 Bft) 97,83 %
21.03.2020 16:46 9,6 C 11,7 C 7,8 C 57 % 1026,1 hPa 0,0 l/m 2 min 0 min 318 W/m 35,4 km/h (5 Bft) 93,62 %
21.03.2020 16:48 9,6 C 11,7 C 7,8 C 57 % 1026,1 hPa 0,0 l/m 2 min 0 min 313 W/m 9,7 km/h (2 Bft) 65,96 %
21.03.2020 16:50 9,5 C 11,7 C 7,8 C 59 % 1026,2 hPa 0,0 l/m 2 min 0 min 307 W/m 9,7 km/h (2 Bft) 81,40 %
21.03.2020 16:52 9,4 C 11,1 C 7,8 C 58 % 1026,1 hPa 0,0 l/m 2 min 0 min 302 W/m 16,1 km/h (3 Bft) 93,62 %
21.03.2020 16:54 9,4 C 10,6 C 7,8 C 58 % 1026,1 hPa 0,0 l/m 2 min 0 min 239 W/m 19,3 km/h (3 Bft) 93,62 %
21.03.2020 16:56 9,3 C 9,4 C 7,8 C 58 % 1026,2 hPa 0,0 l/m 2 min 0 min 202 W/m 12,9 km/h (3 Bft) 93,48 %
21.03.2020 16:58 9,2 C 8,3 C 7,2 C 58 % 1026,2 hPa 0,0 l/m 0 min 0 min 73 W/m 22,5 km/h (4 Bft) 95,74 %
21.03.2020 17:00 9,1 C 8,3 C 7,2 C 58 % 1026,2 hPa 0,0 l/m 0 min 0 min 50 W/m 12,9 km/h (3 Bft) 93,62 %
21.03.2020 17:02 9,0 C 7,8 C 7,2 C 59 % 1026,2 hPa 0,0 l/m 0 min 0 min 49 W/m 16,1 km/h (3 Bft) 93,62 %
21.03.2020 17:04 8,9 C 7,8 C 7,2 C 58 % 1026,2 hPa 0,0 l/m 0 min 0 min 48 W/m 16,1 km/h (3 Bft) 93,62 %
21.03.2020 17:06 8,8 C 7,8 C 7,2 C 59 % 1026,2 hPa 0,0 l/m 0 min 0 min 47 W/m 19,3 km/h (3 Bft) 91,49 %
21.03.2020 17:08 8,8 C 7,8 C 7,2 C 59 % 1026,2 hPa 0,0 l/m 0 min 0 min 47 W/m 29,0 km/h (5 Bft) 93,48 %
21.03.2020 17:10 8,7 C 7,8 C 7,2 C 60 % 1026,2 hPa 0,0 l/m 0 min 0 min 46 W/m 25,7 km/h (4 Bft) 91,49 %
21.03.2020 17:12 8,6 C 7,8 C 7,2 C 59 % 1026,2 hPa 0,0 l/m 0 min 0 min 45 W/m 25,7 km/h (4 Bft) 91,49 %
21.03.2020 17:14 8,6 C 7,8 C 7,2 C 60 % 1026,2 hPa 0,0 l/m 0 min 0 min 44 W/m 16,1 km/h (3 Bft) 95,74 %
21.03.2020 17:16 8,5 C 7,8 C 6,7 C 60 % 1026,3 hPa 0,0 l/m 0 min 0 min 43 W/m 16,1 km/h (3 Bft) 95,74 %
21.03.2020 17:18 8,4 C 7,8 C 6,7 C 60 % 1026,3 hPa 0,0 l/m 0 min 0 min 42 W/m 12,9 km/h (3 Bft) 97,83 %
21.03.2020 17:20 8,4 C 7,8 C 6,7 C 60 % 1026,3 hPa 0,0 l/m 0 min 0 min 41 W/m 19,3 km/h (3 Bft) 97,87 %
21.03.2020 17:22 8,3 C 7,2 C 6,7 C 60 % 1026,3 hPa 0,0 l/m 0 min 0 min 40 W/m 19,3 km/h (3 Bft) 95,74 %
21.03.2020 17:24 8,3 C 7,2 C 6,7 C 60 % 1026,3 hPa 0,0 l/m 0 min 0 min 40 W/m 16,1 km/h (3 Bft) 97,87 %
21.03.2020 17:26 8,2 C 7,2 C 6,7 C 60 % 1026,3 hPa 0,0 l/m 0 min 0 min 39 W/m 29,0 km/h (5 Bft) 97,87 %
21.03.2020 17:28 8,2 C 7,2 C 6,7 C 60 % 1026,3 hPa 0,0 l/m 0 min 0 min 39 W/m 16,1 km/h (3 Bft) 97,87 %
21.03.2020 17:30 8,1 C 7,2 C 6,7 C 60 % 1026,3 hPa 0,0 l/m 0 min 0 min 38 W/m 22,5 km/h (4 Bft) 95,65 %
21.03.2020 17:32 8,1 C 7,2 C 6,7 C 61 % 1026,3 hPa 0,0 l/m 0 min 0 min 37 W/m 16,1 km/h (3 Bft) 97,87 %
21.03.2020 17:34 8,1 C 7,2 C 6,7 C 61 % 1026,3 hPa 0,0 l/m 0 min 0 min 36 W/m 19,3 km/h (3 Bft) 97,87 %
21.03.2020 17:36 8,0 C 7,2 C 6,7 C 61 % 1026,3 hPa 0,0 l/m 0 min 0 min 35 W/m 19,3 km/h (3 Bft) 95,74 %
21.03.2020 17:38 7,9 C 7,2 C 6,7 C 61 % 1026,3 hPa 0,0 l/m 0 min 0 min 35 W/m 25,7 km/h (4 Bft) 97,87 %
21.03.2020 17:40 7,9 C 7,2 C 6,7 C 60 % 1026,3 hPa 0,0 l/m 0 min 0 min 34 W/m 19,3 km/h (3 Bft) 97,87 %
21.03.2020 17:42 7,9 C 7,2 C 6,7 C 60 % 1026,2 hPa 0,0 l/m 0 min 0 min 33 W/m 12,9 km/h (3 Bft) 97,83 %
21.03.2020 17:44 7,9 C 7,2 C 6,1 C 61 % 1026,2 hPa 0,0 l/m 0 min 0 min 33 W/m 19,3 km/h (3 Bft) 97,87 %
21.03.2020 17:46 7,8 C 7,2 C 6,1 C 61 % 1026,2 hPa 0,0 l/m 0 min 0 min 32 W/m 22,5 km/h (4 Bft) 97,87 %
21.03.2020 17:48 7,8 C 7,2 C 6,1 C 62 % 1026,2 hPa 0,0 l/m 0 min 0 min 32 W/m 19,3 km/h (3 Bft) 97,87 %
21.03.2020 17:50 7,8 C 7,2 C 6,1 C 62 % 1026,2 hPa 0,0 l/m 0 min 0 min 30 W/m 19,3 km/h (3 Bft) 100,00 %
21.03.2020 17:52 7,8 C 7,2 C 6,1 C 62 % 1026,2 hPa 0,0 l/m 0 min 0 min 30 W/m 16,1 km/h (3 Bft) 100,00 %
21.03.2020 17:54 7,7 C 6,7 C 6,1 C 62 % 1026,3 hPa 0,0 l/m 0 min 0 min 29 W/m 25,7 km/h (4 Bft) 100,00 %
21.03.2020 17:56 7,7 C 6,7 C 6,1 C 62 % 1026,3 hPa 0,0 l/m 0 min 0 min 28 W/m 16,1 km/h (3 Bft) 100,00 %
21.03.2020 17:58 7,6 C 6,7 C 6,1 C 62 % 1026,3 hPa 0,0 l/m 0 min 0 min 27 W/m 19,3 km/h (3 Bft) 100,00 %
21.03.2020 18:00 7,6 C 6,7 C 6,1 C 62 % 1026,3 hPa 0,0 l/m 0 min 0 min 26 W/m 12,9 km/h (3 Bft) 100,00 %
21.03.2020 18:02 7,6 C 6,7 C 6,1 C 62 % 1026,3 hPa 0,0 l/m 0 min 0 min 26 W/m 19,3 km/h (3 Bft) 100,00 %
21.03.2020 18:04 7,5 C 6,7 C 5,6 C 62 % 1026,3 hPa 0,0 l/m 0 min 0 min 25 W/m 16,1 km/h (3 Bft) 97,87 %
21.03.2020 18:08 7,4 C 6,7 C 5,6 C 63 % 1026,3 hPa 0,0 l/m 0 min 0 min 24 W/m 16,1 km/h (3 Bft) 98,92 %
21.03.2020 18:10 7,3 C 6,7 C 5,6 C 63 % 1026,4 hPa 0,0 l/m 0 min 0 min 22 W/m 16,1 km/h (3 Bft) 100,00 %
21.03.2020 18:12 7,3 C 6,7 C 5,6 C 62 % 1026,4 hPa 0,0 l/m 0 min 0 min 19 W/m 12,9 km/h (3 Bft) 97,87 %
21.03.2020 18:14 7,3 C 6,1 C 5,6 C 63 % 1026,3 hPa 0,0 l/m 0 min 0 min 21 W/m 12,9 km/h (3 Bft) 100,00 %
21.03.2020 18:16 7,2 C 6,1 C 5,6 C 63 % 1026,4 hPa 0,0 l/m 0 min 0 min 20 W/m 12,9 km/h (3 Bft) 97,87 %
21.03.2020 18:18 7,2 C 6,1 C 5,6 C 62 % 1026,4 hPa 0,0 l/m 0 min 0 min 19 W/m 22,5 km/h (4 Bft) 100,00 %
21.03.2020 18:20 7,2 C 6,1 C 5,6 C 63 % 1026,4 hPa 0,0 l/m 0 min 0 min 19 W/m 16,1 km/h (3 Bft) 100,00 %
21.03.2020 18:22 7,1 C 6,1 C 5,6 C 62 % 1026,5 hPa 0,0 l/m 0 min 0 min 18 W/m 19,3 km/h (3 Bft) 100,00 %
21.03.2020 18:24 7,1 C 6,1 C 5,6 C 62 % 1026,6 hPa 0,0 l/m 0 min 0 min 17 W/m 12,9 km/h (3 Bft) 97,87 %
21.03.2020 18:26 7,1 C 6,1 C 5,6 C 63 % 1026,5 hPa 0,0 l/m 0 min 0 min 16 W/m 19,3 km/h (3 Bft) 95,74 %
21.03.2020 18:28 7,0 C 6,1 C 5,6 C 62 % 1026,6 hPa 0,0 l/m 0 min 0 min 15 W/m 19,3 km/h (3 Bft) 95,65 %
21.03.2020 18:30 6,9 C 6,1 C 5,0 C 62 % 1026,5 hPa 0,0 l/m 0 min 0 min 14 W/m 16,1 km/h (3 Bft) 97,87 %
21.03.2020 18:32 6,9 C 6,1 C 5,0 C 63 % 1026,6 hPa 0,0 l/m 0 min 0 min 13 W/m 16,1 km/h (3 Bft) 97,87 %
21.03.2020 18:34 6,9 C 5,6 C 5,0 C 63 % 1026,6 hPa 0,0 l/m 0 min 0 min 12 W/m 12,9 km/h (3 Bft) 95,74 %
21.03.2020 18:36 6,8 C 5,6 C 5,0 C 63 % 1026,5 hPa 0,0 l/m 0 min 0 min 12 W/m 12,9 km/h (3 Bft) 97,87 %
21.03.2020 18:38 6,8 C 5,6 C 5,0 C 63 % 1026,6 hPa 0,0 l/m 0 min 0 min 11 W/m 12,9 km/h (3 Bft) 97,87 %
21.03.2020 18:40 6,7 C 5,6 C 5,0 C 63 % 1026,6 hPa 0,0 l/m 0 min 0 min 10 W/m 16,1 km/h (3 Bft) 97,83 %
21.03.2020 18:42 6,7 C 5,6 C 5,0 C 63 % 1026,7 hPa 0,0 l/m 0 min 0 min 9 W/m 16,1 km/h (3 Bft) 97,87 %
21.03.2020 18:44 6,7 C 5,6 C 5,0 C 63 % 1026,7 hPa 0,0 l/m 0 min 0 min 8 W/m 12,9 km/h (3 Bft) 97,87 %
21.03.2020 18:46 6,6 C 5,6 C 5,0 C 64 % 1026,7 hPa 0,0 l/m 0 min 0 min 7 W/m 12,9 km/h (3 Bft) 97,87 %
21.03.2020 18:48 6,6 C 5,6 C 5,0 C 63 % 1026,8 hPa 0,0 l/m 0 min 0 min 5 W/m 12,9 km/h (3 Bft) 95,74 %
21.03.2020 18:50 6,5 C 5,6 C 5,0 C 63 % 1026,7 hPa 0,0 l/m 0 min 0 min 5 W/m 16,1 km/h (3 Bft) 95,74 %
21.03.2020 18:52 6,5 C 5,6 C 5,0 C 63 % 1026,8 hPa 0,0 l/m 0 min 0 min 2 W/m 16,1 km/h (3 Bft) 97,83 %
21.03.2020 18:54 6,5 C 5,6 C 5,0 C 63 % 1026,8 hPa 0,0 l/m 0 min 0 min 0 W/m 12,9 km/h (3 Bft) 100,00 %
21.03.2020 18:56 6,4 C 5,6 C 5,0 C 63 % 1026,8 hPa 0,0 l/m 0 min 0 min 0 W/m 16,1 km/h (3 Bft) 100,00 %
21.03.2020 18:58 6,4 C 5,6 C 4,4 C 63 % 1026,8 hPa 0,0 l/m 0 min 0 min 0 W/m 19,3 km/h (3 Bft) 100,00 %
21.03.2020 19:00 6,4 C 5,0 C 4,4 C 64 % 1026,8 hPa 0,0 l/m 0 min 0 min 0 W/m 9,7 km/h (2 Bft) 95,74 %
21.03.2020 19:02 6,3 C 5,0 C 4,4 C 64 % 1026,9 hPa 0,0 l/m 0 min 0 min 0 W/m 16,1 km/h (3 Bft) 97,87 %
21.03.2020 19:04 6,3 C 5,0 C 4,4 C 64 % 1026,8 hPa 0,0 l/m 0 min 0 min 0 W/m 16,1 km/h (3 Bft) 100,00 %
21.03.2020 19:06 6,3 C 5,0 C 4,4 C 64 % 1026,8 hPa 0,0 l/m 0 min 0 min 0 W/m 16,1 km/h (3 Bft) 100,00 %
21.03.2020 19:08 6,2 C 5,0 C 4,4 C 64 % 1026,9 hPa 0,0 l/m 0 min 0 min 0 W/m 12,9 km/h (3 Bft) 100,00 %
21.03.2020 19:10 6,2 C 5,0 C 4,4 C 64 % 1026,8 hPa 0,0 l/m 0 min 0 min 0 W/m 9,7 km/h (2 Bft) 100,00 %
21.03.2020 19:12 6,2 C 5,0 C 4,4 C 65 % 1026,8 hPa 0,0 l/m 0 min 0 min 0 W/m 12,9 km/h (3 Bft) 100,00 %
21.03.2020 19:14 6,1 C 5,0 C 4,4 C 65 % 1026,9 hPa 0,0 l/m 0 min 0 min 0 W/m 22,5 km/h (4 Bft) 97,87 %
21.03.2020 19:16 6,1 C 5,0 C 4,4 C 65 % 1026,9 hPa 0,0 l/m 0 min 0 min 0 W/m 16,1 km/h (3 Bft) 100,00 %
21.03.2020 19:18 6,1 C 5,0 C 4,4 C 65 % 1026,9 hPa 0,0 l/m 0 min 0 min 0 W/m 9,7 km/h (2 Bft) 97,87 %
21.03.2020 19:20 6,1 C 5,0 C 4,4 C 65 % 1026,9 hPa 0,0 l/m 0 min 0 min 0 W/m 0,0 km/h (0 Bft) 100,00 %
21.03.2020 19:22 6,0 C 5,0 C 4,4 C 65 % 1026,9 hPa 0,0 l/m 0 min 0 min 0 W/m 9,7 km/h (2 Bft) 100,00 %
21.03.2020 19:24 5,9 C 5,0 C 3,9 C 66 % 1027,0 hPa 0,0 l/m 0 min 0 min 0 W/m 9,7 km/h (2 Bft) 100,00 %
21.03.2020 19:26 5,9 C 4,4 C 3,9 C 66 % 1026,9 hPa 0,0 l/m 0 min 0 min 0 W/m 16,1 km/h (3 Bft) 100,00 %
21.03.2020 19:28 5,9 C 4,4 C 3,9 C 66 % 1027,0 hPa 0,0 l/m 0 min 0 min 0 W/m 16,1 km/h (3 Bft) 100,00 %
21.03.2020 19:30 5,8 C 4,4 C 3,9 C 66 % 1027,0 hPa 0,0 l/m 0 min 0 min 0 W/m 19,3 km/h (3 Bft) 97,87 %
21.03.2020 19:32 5,8 C 4,4 C 3,9 C 66 % 1027,2 hPa 0,0 l/m 0 min 0 min 0 W/m 16,1 km/h (3 Bft) 97,87 %
21.03.2020 19:34 5,7 C 4,4 C 3,9 C 67 % 1027,1 hPa 0,0 l/m 0 min 0 min 0 W/m 12,9 km/h (3 Bft) 97,87 %
21.03.2020 19:36 5,7 C 4,4 C 3,9 C 66 % 1027,1 hPa 0,0 l/m 0 min 0 min 0 W/m 19,3 km/h (3 Bft) 97,87 %
21.03.2020 19:38 5,7 C 4,4 C 3,9 C 67 % 1027,2 hPa 0,0 l/m 0 min 0 min 0 W/m 12,9 km/h (3 Bft) 95,65 %
21.03.2020 19:40 5,7 C 4,4 C 3,9 C 67 % 1027,2 hPa 0,0 l/m 0 min 0 min 0 W/m 9,7 km/h (2 Bft) 97,87 %
21.03.2020 19:42 5,6 C 4,4 C 3,9 C 67 % 1027,3 hPa 0,0 l/m 0 min 0 min 0 W/m 19,3 km/h (3 Bft) 97,87 %
21.03.2020 19:44 5,6 C 4,4 C 3,9 C 67 % 1027,3 hPa 0,0 l/m 0 min 0 min 0 W/m 12,9 km/h (3 Bft) 97,87 %
21.03.2020 19:46 5,5 C 4,4 C 3,9 C 67 % 1027,3 hPa 0,0 l/m 0 min 0 min 0 W/m 12,9 km/h (3 Bft) 97,87 %
21.03.2020 19:48 5,5 C 4,4 C 3,9 C 67 % 1027,3 hPa 0,0 l/m 0 min 0 min 0 W/m 6,4 km/h (2 Bft) 95,74 %
21.03.2020 19:50 5,4 C 4,4 C 3,9 C 68 % 1027,3 hPa 0,0 l/m 0 min 0 min 0 W/m 0,0 km/h (0 Bft) 95,65 %
21.03.2020 19:52 5,4 C 4,4 C 3,9 C 67 % 1027,3 hPa 0,0 l/m 0 min 0 min 0 W/m 0,0 km/h (0 Bft) 97,87 %
21.03.2020 19:54 5,4 C 4,4 C 3,9 C 68 % 1027,4 hPa 0,0 l/m 0 min 0 min 0 W/m 0,0 km/h (0 Bft) 97,87 %
21.03.2020 19:56 5,3 C 4,4 C 3,9 C 68 % 1027,4 hPa 0,0 l/m 0 min 0 min 0 W/m 0,0 km/h (0 Bft) 97,87 %
21.03.2020 19:58 5,3 C 4,4 C 3,9 C 68 % 1027,4 hPa 0,0 l/m 0 min 0 min 0 W/m 16,1 km/h (3 Bft) 97,87 %
21.03.2020 20:00 5,3 C 4,4 C 3,9 C 67 % 1027,5 hPa 0,0 l/m 0 min 0 min 0 W/m 19,3 km/h (3 Bft) 97,87 %
21.03.2020 20:02 5,3 C 4,4 C 3,9 C 68 % 1027,5 hPa 0,0 l/m 0 min 0 min 0 W/m 12,9 km/h (3 Bft) 97,83 %
21.03.2020 20:04 5,3 C 3,9 C 3,3 C 68 % 1027,6 hPa 0,0 l/m 0 min 0 min 0 W/m 12,9 km/h (3 Bft) 97,87 %
21.03.2020 20:06 5,2 C 3,9 C 3,3 C 68 % 1027,6 hPa 0,0 l/m 0 min 0 min 0 W/m 16,1 km/h (3 Bft) 93,62 %
21.03.2020 20:08 5,2 C 3,9 C 3,3 C 68 % 1027,6 hPa 0,0 l/m 0 min 0 min 0 W/m 0,0 km/h (0 Bft) 95,74 %
21.03.2020 20:09 5,2 C 3,9 C 3,3 C 68 % 1027,6 hPa 0,0 l/m 0 min 0 min 0 W/m 9,7 km/h (2 Bft) 97,87 %
21.03.2020 20:12 5,2 C 3,9 C 3,3 C 68 % 1027,6 hPa 0,0 l/m 0 min 0 min 0 W/m 6,4 km/h (2 Bft) 97,83 %
21.03.2020 20:14 5,1 C 3,9 C 3,3 C 68 % 1027,6 hPa 0,0 l/m 0 min 0 min 0 W/m 16,1 km/h (3 Bft) 95,74 %
21.03.2020 20:16 5,1 C 3,9 C 3,3 C 68 % 1027,7 hPa 0,0 l/m 0 min 0 min 0 W/m 12,9 km/h (3 Bft) 95,74 %
21.03.2020 20:18 5,1 C 3,9 C 3,3 C 68 % 1027,7 hPa 0,0 l/m 0 min 0 min 0 W/m 0,0 km/h (0 Bft) 93,62 %
21.03.2020 20:20 5,0 C 3,9 C 3,3 C 68 % 1027,7 hPa 0,0 l/m 0 min 0 min 0 W/m 6,4 km/h (2 Bft) 95,74 %
21.03.2020 20:22 5,0 C 3,9 C 3,3 C 69 % 1027,7 hPa 0,0 l/m 0 min 0 min 0 W/m 12,9 km/h (3 Bft) 95,74 %
21.03.2020 20:24 4,9 C 3,9 C 3,3 C 68 % 1027,7 hPa 0,0 l/m 0 min 0 min 0 W/m 19,3 km/h (3 Bft) 97,83 %
21.03.2020 20:26 4,9 C 3,9 C 3,3 C 69 % 1027,8 hPa 0,0 l/m 0 min 0 min 0 W/m 9,7 km/h (2 Bft) 97,87 %
21.03.2020 20:28 4,9 C 3,9 C 3,3 C 69 % 1027,8 hPa 0,0 l/m 0 min 0 min 0 W/m 16,1 km/h (3 Bft) 97,87 %
21.03.2020 20:30 4,8 C 3,9 C 3,3 C 69 % 1027,8 hPa 0,0 l/m 0 min 0 min 0 W/m 9,7 km/h (2 Bft) 97,87 %
21.03.2020 20:32 4,8 C 3,9 C 2,8 C 69 % 1027,8 hPa 0,0 l/m 0 min 0 min 0 W/m 0,0 km/h (0 Bft) 95,74 %
21.03.2020 20:34 4,8 C 3,3 C 2,8 C 69 % 1027,8 hPa 0,0 l/m 0 min 0 min 0 W/m 6,4 km/h (2 Bft) 97,87 %
21.03.2020 20:36 4,8 C 3,9 C 2,8 C 69 % 1027,8 hPa 0,0 l/m 0 min 0 min 0 W/m 12,9 km/h (3 Bft) 97,83 %
21.03.2020 20:38 4,7 C 3,3 C 2,8 C 69 % 1027,8 hPa 0,0 l/m 0 min 0 min 0 W/m 9,7 km/h (2 Bft) 97,87 %
21.03.2020 20:40 4,7 C 3,3 C 2,8 C 70 % 1027,9 hPa 0,0 l/m 0 min 0 min 0 W/m 9,7 km/h (2 Bft) 97,87 %
21.03.2020 20:42 4,7 C 3,3 C 2,8 C 69 % 1027,9 hPa 0,0 l/m 0 min 0 min 0 W/m 9,7 km/h (2 Bft) 97,87 %
21.03.2020 20:44 4,6 C 3,3 C 2,8 C 69 % 1027,8 hPa 0,0 l/m 0 min 0 min 0 W/m 9,7 km/h (2 Bft) 97,87 %
21.03.2020 20:46 4,6 C 3,3 C 2,8 C 69 % 1027,9 hPa 0,0 l/m 0 min 0 min 0 W/m 6,4 km/h (2 Bft) 97,87 %
21.03.2020 20:48 4,6 C 3,3 C 2,8 C 70 % 1027,9 hPa 0,0 l/m 0 min 0 min 0 W/m 6,4 km/h (2 Bft) 89,13 %
21.03.2020 20:50 4,6 C 3,3 C 2,8 C 70 % 1027,9 hPa 0,0 l/m 0 min 0 min 0 W/m 9,7 km/h (2 Bft) 93,62 %
21.03.2020 20:52 4,6 C 3,3 C 2,8 C 70 % 1027,9 hPa 0,0 l/m 0 min 0 min 0 W/m 12,9 km/h (3 Bft) 97,87 %
21.03.2020 20:54 4,5 C 3,3 C 2,8 C 70 % 1027,9 hPa 0,0 l/m 0 min 0 min 0 W/m 3,2 km/h (1 Bft) 97,87 %
21.03.2020 20:56 4,4 C 3,3 C 2,8 C 70 % 1027,9 hPa 0,0 l/m 0 min 0 min 0 W/m 3,2 km/h (1 Bft) 97,87 %
21.03.2020 20:58 4,4 C 3,3 C 2,8 C 70 % 1027,9 hPa 0,0 l/m 0 min 0 min 0 W/m 9,7 km/h (2 Bft) 97,87 %
21.03.2020 21:00 4,4 C 3,3 C 2,8 C 70 % 1028,0 hPa 0,0 l/m 0 min 0 min 0 W/m 12,9 km/h (3 Bft) 97,83 %
21.03.2020 21:02 4,4 C 3,3 C 2,8 C 70 % 1027,9 hPa 0,0 l/m 0 min 0 min 0 W/m 9,7 km/h (2 Bft) 95,74 %
21.03.2020 21:04 4,4 C 3,3 C 2,8 C 70 % 1027,9 hPa 0,0 l/m 0 min 0 min 0 W/m 9,7 km/h (2 Bft) 100,00 %
21.03.2020 21:06 4,3 C 3,3 C 2,8 C 70 % 1027,9 hPa 0,0 l/m 0 min 0 min 0 W/m 9,7 km/h (2 Bft) 97,87 %
21.03.2020 21:08 4,3 C 3,3 C 2,8 C 70 % 1027,9 hPa 0,0 l/m 0 min 0 min 0 W/m 9,7 km/h (2 Bft) 95,74 %
21.03.2020 21:10 4,3 C 3,3 C 2,8 C 70 % 1028,0 hPa 0,0 l/m 0 min 0 min 0 W/m 9,7 km/h (2 Bft) 95,65 %
21.03.2020 21:12 4,3 C 3,3 C 2,8 C 70 % 1028,0 hPa 0,0 l/m 0 min 0 min 0 W/m 9,7 km/h (2 Bft) 97,87 %
21.03.2020 21:14 4,3 C 3,3 C 2,8 C 70 % 1028,0 hPa 0,0 l/m 0 min 0 min 0 W/m 9,7 km/h (2 Bft) 97,87 %
21.03.2020 21:16 4,3 C 3,3 C 2,8 C 70 % 1028,0 hPa 0,0 l/m 0 min 0 min 0 W/m 3,2 km/h (1 Bft) 95,74 %
21.03.2020 21:18 4,2 C 3,3 C 2,8 C 70 % 1028,1 hPa 0,0 l/m 0 min 0 min 0 W/m 6,4 km/h (2 Bft) 97,87 %
21.03.2020 21:20 4,2 C 3,3 C 2,8 C 70 % 1028,2 hPa 0,0 l/m 0 min 0 min 0 W/m 9,7 km/h (2 Bft) 97,87 %
21.03.2020 21:22 4,2 C 3,3 C 2,8 C 70 % 1028,1 hPa 0,0 l/m 0 min 0 min 0 W/m 9,7 km/h (2 Bft) 97,83 %
21.03.2020 21:24 4,2 C 3,3 C 2,8 C 70 % 1028,2 hPa 0,0 l/m 0 min 0 min 0 W/m 3,2 km/h (1 Bft) 97,87 %
21.03.2020 21:26 4,2 C 3,3 C 2,8 C 70 % 1028,1 hPa 0,0 l/m 0 min 0 min 0 W/m 0,0 km/h (0 Bft) 97,87 %
21.03.2020 21:28 4,2 C 3,3 C 2,8 C 70 % 1028,2 hPa 0,0 l/m 0 min 0 min 0 W/m 0,0 km/h (0 Bft) 97,87 %
21.03.2020 21:30 4,1 C 3,3 C 2,8 C 70 % 1028,2 hPa 0,0 l/m 0 min 0 min 0 W/m 0,0 km/h (0 Bft) 95,74 %
21.03.2020 21:32 4,1 C 3,3 C 2,2 C 70 % 1028,2 hPa 0,0 l/m 0 min 0 min 0 W/m 3,2 km/h (1 Bft) 97,87 %
21.03.2020 21:34 4,1 C 3,3 C 2,2 C 69 % 1028,2 hPa 0,0 l/m 0 min 0 min 0 W/m 12,9 km/h (3 Bft) 97,83 %
21.03.2020 21:36 4,1 C 3,3 C 2,2 C 69 % 1028,3 hPa 0,0 l/m 0 min 0 min 0 W/m 0,0 km/h (0 Bft) 100,00 %
21.03.2020 21:38 4,1 C 3,3 C 2,2 C 69 % 1028,3 hPa 0,0 l/m 0 min 0 min 0 W/m 3,2 km/h (1 Bft) 97,87 %
21.03.2020 21:40 4,0 C 3,3 C 2,8 C 69 % 1028,2 hPa 0,0 l/m 0 min 0 min 0 W/m 0,0 km/h (0 Bft) 68,09 %
21.03.2020 21:42 4,0 C 3,3 C 2,2 C 69 % 1028,3 hPa 0,0 l/m 0 min 0 min 0 W/m 0,0 km/h (0 Bft) 86,36 %
21.03.2020 21:44 4,0 C 3,3 C 2,8 C 69 % 1028,3 hPa 0,0 l/m 0 min 0 min 0 W/m 0,0 km/h (0 Bft) 97,87 %
21.03.2020 21:46 3,9 C 3,3 C 2,2 C 69 % 1028,3 hPa 0,0 l/m 0 min 0 min 0 W/m 12,9 km/h (3 Bft) 93,48 %
21.03.2020 21:48 3,9 C 3,3 C 2,2 C 69 % 1028,3 hPa 0,0 l/m 0 min 0 min 0 W/m 12,9 km/h (3 Bft) 97,87 %
21.03.2020 21:50 3,9 C 2,8 C 2,2 C 68 % 1028,4 hPa 0,0 l/m 0 min 0 min 0 W/m 22,5 km/h (4 Bft) 97,87 %
21.03.2020 21:52 3,9 C 2,8 C 2,2 C 69 % 1028,4 hPa 0,0 l/m 0 min 0 min 0 W/m 19,3 km/h (3 Bft) 97,87 %
21.03.2020 21:54 3,9 C 3,3 C 2,8 C 68 % 1028,4 hPa 0,0 l/m 0 min 0 min 0 W/m 19,3 km/h (3 Bft) 97,87 %
21.03.2020 21:56 3,9 C 3,3 C 2,2 C 68 % 1028,4 hPa 0,0 l/m 0 min 0 min 0 W/m 9,7 km/h (2 Bft) 100,00 %
21.03.2020 21:58 3,9 C 2,8 C 2,2 C 68 % 1028,5 hPa 0,0 l/m 0 min 0 min 0 W/m 9,7 km/h (2 Bft) 97,83 %
21.03.2020 22:00 3,9 C 2,8 C 2,2 C 68 % 1028,5 hPa 0,0 l/m 0 min 0 min 0 W/m 6,4 km/h (2 Bft) 100,00 %
21.03.2020 22:02 3,9 C 2,8 C 2,2 C 68 % 1028,5 hPa 0,0 l/m 0 min 0 min 0 W/m 9,7 km/h (2 Bft) 97,87 %
21.03.2020 22:04 3,8 C 2,8 C 2,2 C 68 % 1028,6 hPa 0,0 l/m 0 min 0 min 0 W/m 3,2 km/h (1 Bft) 97,87 %
21.03.2020 22:06 3,8 C 3,3 C 2,2 C 68 % 1028,5 hPa 0,0 l/m 0 min 0 min 0 W/m 16,1 km/h (3 Bft) 97,87 %
21.03.2020 22:08 3,8 C 3,3 C 2,2 C 68 % 1028,6 hPa 0,0 l/m 0 min 0 min 0 W/m 16,1 km/h (3 Bft) 100,00 %
21.03.2020 22:10 3,8 C 2,8 C 2,2 C 68 % 1028,6 hPa 0,0 l/m 0 min 0 min 0 W/m 0,0 km/h (0 Bft) 100,00 %
21.03.2020 22:12 3,8 C 2,8 C 2,2 C 68 % 1028,6 hPa 0,0 l/m 0 min 0 min 0 W/m 0,0 km/h (0 Bft) 97,87 %
21.03.2020 22:14 3,8 C 2,8 C 2,2 C 68 % 1028,5 hPa 0,0 l/m 0 min 0 min 0 W/m 16,1 km/h (3 Bft) 97,87 %
21.03.2020 22:16 3,8 C 2,8 C 2,2 C 68 % 1028,6 hPa 0,0 l/m 0 min 0 min 0 W/m 9,7 km/h (2 Bft) 97,87 %
21.03.2020 22:18 3,8 C 2,8 C 2,2 C 68 % 1028,6 hPa 0,0 l/m 0 min 0 min 0 W/m 6,4 km/h (2 Bft) 100,00 %
21.03.2020 22:20 3,8 C 2,8 C 2,2 C 68 % 1028,7 hPa 0,0 l/m 0 min 0 min 0 W/m 9,7 km/h (2 Bft) 95,65 %
21.03.2020 22:22 3,7 C 2,8 C 2,2 C 68 % 1028,7 hPa 0,0 l/m 0 min 0 min 0 W/m 9,7 km/h (2 Bft) 97,87 %
21.03.2020 22:24 3,7 C 2,8 C 2,2 C 68 % 1028,7 hPa 0,0 l/m 0 min 0 min 0 W/m 6,4 km/h (2 Bft) 97,87 %
21.03.2020 22:26 3,7 C 2,8 C 2,2 C 68 % 1028,7 hPa 0,0 l/m 0 min 0 min 0 W/m 3,2 km/h (1 Bft) 97,87 %
21.03.2020 22:28 3,6 C 2,8 C 2,2 C 68 % 1028,8 hPa 0,0 l/m 0 min 0 min 0 W/m 12,9 km/h (3 Bft) 97,87 %
21.03.2020 22:30 3,6 C 2,8 C 2,2 C 68 % 1028,8 hPa 0,0 l/m 0 min 0 min 0 W/m 12,9 km/h (3 Bft) 97,87 %
21.03.2020 22:32 3,6 C 2,8 C 2,2 C 68 % 1028,8 hPa 0,0 l/m 0 min 0 min 0 W/m 3,2 km/h (1 Bft) 93,62 %
21.03.2020 22:34 3,6 C 2,8 C 1,7 C 68 % 1028,8 hPa 0,0 l/m 0 min 0 min 0 W/m 6,4 km/h (2 Bft) 93,48 %
21.03.2020 22:36 3,6 C 2,8 C 1,7 C 68 % 1028,8 hPa 0,0 l/m 0 min 0 min 0 W/m 12,9 km/h (3 Bft) 95,74 %
21.03.2020 22:38 3,5 C 2,8 C 1,7 C 68 % 1028,8 hPa 0,0 l/m 0 min 0 min 0 W/m 0,0 km/h (0 Bft) 95,74 %
21.03.2020 22:40 3,5 C 2,2 C 1,7 C 69 % 1028,9 hPa 0,0 l/m 0 min 0 min 0 W/m 3,2 km/h (1 Bft) 95,74 %
21.03.2020 22:42 3,4 C 2,2 C 1,7 C 69 % 1028,8 hPa 0,0 l/m 0 min 0 min 0 W/m 9,7 km/h (2 Bft) 93,62 %
21.03.2020 22:44 3,4 C 2,8 C 1,7 C 69 % 1028,9 hPa 0,0 l/m 0 min 0 min 0 W/m 9,7 km/h (2 Bft) 95,65 %
21.03.2020 22:46 3,4 C 2,2 C 1,7 C 69 % 1028,9 hPa 0,0 l/m 0 min 0 min 0 W/m 9,7 km/h (2 Bft) 95,74 %
21.03.2020 22:48 3,4 C 2,2 C 1,7 C 69 % 1028,9 hPa 0,0 l/m 0 min 0 min 0 W/m 6,4 km/h (2 Bft) 95,74 %
21.03.2020 22:50 3,4 C 2,2 C 1,7 C 69 % 1028,9 hPa 0,0 l/m 0 min 0 min 0 W/m 6,4 km/h (2 Bft) 95,74 %
21.03.2020 22:52 3,3 C 2,2 C 1,7 C 69 % 1028,8 hPa 0,0 l/m 0 min 0 min 0 W/m 12,9 km/h (3 Bft) 93,62 %
21.03.2020 22:54 3,3 C 2,2 C 1,7 C 69 % 1028,9 hPa 0,0 l/m 0 min 0 min 0 W/m 6,4 km/h (2 Bft) 95,74 %
21.03.2020 22:56 3,3 C 2,2 C 1,7 C 70 % 1028,9 hPa 0,0 l/m 0 min 0 min 0 W/m 3,2 km/h (1 Bft) 97,83 %
21.03.2020 22:58 3,3 C 2,2 C 1,7 C 70 % 1028,9 hPa 0,0 l/m 0 min 0 min 0 W/m 0,0 km/h (0 Bft) 95,74 %
21.03.2020 23:00 3,2 C 2,2 C 1,7 C 70 % 1028,9 hPa 0,0 l/m 0 min 0 min 0 W/m 6,4 km/h (2 Bft) 97,87 %
21.03.2020 23:02 3,2 C 2,2 C 1,7 C 70 % 1028,9 hPa 0,0 l/m 0 min 0 min 0 W/m 16,1 km/h (3 Bft) 93,62 %
21.03.2020 23:04 3,2 C 2,2 C 1,7 C 70 % 1028,9 hPa 0,0 l/m 0 min 0 min 0 W/m 9,7 km/h (2 Bft) 98,00 %
21.03.2020 23:06 3,1 C 2,2 C 1,7 C 70 % 1029,0 hPa 0,0 l/m 0 min 0 min 0 W/m 6,4 km/h (2 Bft) 93,62 %
21.03.2020 23:08 3,1 C 2,2 C 1,7 C 70 % 1029,0 hPa 0,0 l/m 0 min 0 min 0 W/m 9,7 km/h (2 Bft) 97,87 %
21.03.2020 23:10 3,1 C 2,2 C 1,7 C 70 % 1028,9 hPa 0,0 l/m 0 min 0 min 0 W/m 0,0 km/h (0 Bft) 97,83 %
21.03.2020 23:12 3,1 C 2,2 C 1,7 C 70 % 1029,0 hPa 0,0 l/m 0 min 0 min 0 W/m 0,0 km/h (0 Bft) 97,87 %
21.03.2020 23:14 3,1 C 2,2 C 1,1 C 70 % 1029,0 hPa 0,0 l/m 0 min 0 min 0 W/m 9,7 km/h (2 Bft) 95,74 %
21.03.2020 23:16 3,0 C 1,7 C 1,1 C 70 % 1029,0 hPa 0,0 l/m 0 min 0 min 0 W/m 9,7 km/h (2 Bft) 97,87 %
21.03.2020 23:18 3,0 C 1,7 C 1,1 C 71 % 1029,0 hPa 0,0 l/m 0 min 0 min 0 W/m 3,2 km/h (1 Bft) 97,87 %
21.03.2020 23:20 2,9 C 2,2 C 1,1 C 71 % 1029,0 hPa 0,0 l/m 0 min 0 min 0 W/m 6,4 km/h (2 Bft) 97,87 %
21.03.2020 23:22 2,9 C 2,2 C 1,1 C 71 % 1029,0 hPa 0,0 l/m 0 min 0 min 0 W/m 9,7 km/h (2 Bft) 100,00 %
21.03.2020 23:24 2,9 C 1,7 C 1,1 C 70 % 1029,0 hPa 0,0 l/m 0 min 0 min 0 W/m 12,9 km/h (3 Bft) 100,00 %
21.03.2020 23:26 2,9 C 1,7 C 1,1 C 71 % 1029,0 hPa 0,0 l/m 0 min 0 min 0 W/m 6,4 km/h (2 Bft) 100,00 %
21.03.2020 23:28 2,8 C 1,7 C 1,1 C 71 % 1029,0 hPa 0,0 l/m 0 min 0 min 0 W/m 3,2 km/h (1 Bft) 72,34 %
21.03.2020 23:30 2,8 C 1,7 C 1,1 C 71 % 1029,0 hPa 0,0 l/m 0 min 0 min 0 W/m 3,2 km/h (1 Bft) 80,56 %
21.03.2020 23:32 2,8 C 1,7 C 1,1 C 71 % 1029,0 hPa 0,0 l/m 0 min 0 min 0 W/m 6,4 km/h (2 Bft) 100,00 %
21.03.2020 23:34 2,8 C 1,7 C 1,1 C 71 % 1029,0 hPa 0,0 l/m 0 min 0 min 0 W/m 0,0 km/h (0 Bft) 100,00 %
21.03.2020 23:36 2,7 C 1,7 C 1,1 C 71 % 1029,0 hPa 0,0 l/m 0 min 0 min 0 W/m 0,0 km/h (0 Bft) 100,00 %
21.03.2020 23:38 2,7 C 1,7 C 1,1 C 71 % 1029,0 hPa 0,0 l/m 0 min 0 min 0 W/m 6,4 km/h (2 Bft) 100,00 %
21.03.2020 23:40 2,7 C 1,7 C 1,1 C 71 % 1029,0 hPa 0,0 l/m 0 min 0 min 0 W/m 3,2 km/h (1 Bft) 100,00 %
21.03.2020 23:42 2,7 C 1,7 C 1,1 C 71 % 1029,1 hPa 0,0 l/m 0 min 0 min 0 W/m 3,2 km/h (1 Bft) 100,00 %
21.03.2020 23:44 2,6 C 1,7 C 1,1 C 71 % 1029,0 hPa 0,0 l/m 0 min 0 min 0 W/m 6,4 km/h (2 Bft) 100,00 %
21.03.2020 23:46 2,6 C 1,7 C 1,1 C 71 % 1029,0 hPa 0,0 l/m 0 min 0 min 0 W/m 6,4 km/h (2 Bft) 100,00 %
21.03.2020 23:48 2,6 C 1,1 C 0,6 C 71 % 1029,0 hPa 0,0 l/m 0 min 0 min 0 W/m 3,2 km/h (1 Bft) 100,00 %
21.03.2020 23:50 2,6 C 1,1 C 0,6 C 72 % 1029,0 hPa 0,0 l/m 0 min 0 min 0 W/m 0,0 km/h (0 Bft) 100,00 %
21.03.2020 23:52 2,5 C 1,1 C 0,6 C 72 % 1029,0 hPa 0,0 l/m 0 min 0 min 0 W/m 3,2 km/h (1 Bft) 100,00 %
21.03.2020 23:54 2,5 C 1,1 C 0,6 C 72 % 1029,0 hPa 0,0 l/m 0 min 0 min 0 W/m 0,0 km/h (0 Bft) 100,00 %
21.03.2020 23:56 2,5 C 1,1 C 0,6 C 72 % 1029,0 hPa 0,0 l/m 0 min 0 min 0 W/m 3,2 km/h (1 Bft) 100,00 %
21.03.2020 23:58 2,4 C 1,1 C 0,6 C 72 % 1029,0 hPa 0,0 l/m 0 min 0 min 0 W/m 0,0 km/h (0 Bft) 100,00 %
_ Min-Zeit 23:58 23:48 23:48 14:24 16:46 - - - - 01:50 08:36
Minimum _ 2,4 C 1,1 C 0,6 C 56 % 1026,1 hPa - - - - 0,0 km/h (0 Bft) 37,50 %
_ Max-Zeit 13:52 13:48 13:04 00:00 23:42 01:08 12:08 00:08 12:44 15:50 00:00
Maximum _ 11,2 C 17,2 C 16,1 C 93 % 1029,1 hPa 0,2 l/m 4 min 4 min 861 W/m 38,6 km/h
N-NW (5 Bft)
100,00 %
Durchschnitt _ 6,1 C 6,8 C 5,2 C 76 % 1027,4 hPa #0,4 l/m #8:10 h #1:00 h 400 W/m 12,7 km/h (3 Bft) 97,33 %
© 2020 W. Hausmann